CPA165 VHHH-YMML
Flight info
| Callsign | CPA165 |
|---|---|
| Flight time | 8h 13m |
| Altitude | 35000 |
| Route | DALOL V642 NOMAN A461 AVMUP W16 MIA DCT LIGPA B472 COT R590 PEDNO/N0486F370 R590 BUTPA A461 ADKUL DCT 1053S13024E 1530S13159E 1708S13232E DCT KIKAN/N0481F390 DCT 2403S13521E 2730S13720E 2918S13834E 3229S14102E DCT NATYA H119 ARBEY |
| Aircraft | B77W/H-SDE1E2E3FGHIJ2J3J4J5M1RWXY/LB1D1 |
Departure
| Time | 2026-05-07 13:11 |
|---|---|
| Airport | Hong Kong International Airport (VHHH) |
Arrival
| Time | 2026-05-07 21:24 |
|---|---|
| Airport | Melbourne Airport (YMML) |
| Time | Latitude | Longitude | Altitude | Speed | Heading |
|---|---|---|---|---|---|
| 2026-05-07 12:10 | 22.31509 | 113.92486 | 37 ft | 0 kts | 206° |
| 2026-05-07 12:51 | 22.31523 | 113.92494 | 37 ft | 4 kts | 206° |
| 2026-05-07 12:51 | 22.31547 | 113.92506 | 36 ft | 4 kts | 206° |
| 2026-05-07 12:51 | 22.31567 | 113.92516 | 37 ft | 4 kts | 211° |
| 2026-05-07 12:51 | 22.31584 | 113.92534 | 37 ft | 4 kts | 257° |
| 2026-05-07 12:52 | 22.31581 | 113.92558 | 34 ft | 4 kts | 296° |
| 2026-05-07 12:52 | 22.31569 | 113.92584 | 34 ft | 4 kts | 296° |
| 2026-05-07 12:52 | 22.31567 | 113.92590 | 37 ft | 0 kts | 296° |
| 2026-05-07 12:57 | 22.31568 | 113.92586 | 37 ft | 4 kts | 296° |
| 2026-05-07 12:58 | 22.31591 | 113.92536 | 37 ft | 8 kts | 296° |
| 2026-05-07 12:58 | 22.31615 | 113.92484 | 37 ft | 8 kts | 296° |
| 2026-05-07 12:58 | 22.31637 | 113.92430 | 37 ft | 8 kts | 288° |
| 2026-05-07 12:58 | 22.31638 | 113.92372 | 37 ft | 8 kts | 261° |
| 2026-05-07 12:59 | 22.31624 | 113.92315 | 37 ft | 8 kts | 252° |
| 2026-05-07 12:59 | 22.31607 | 113.92259 | 37 ft | 8 kts | 252° |
| 2026-05-07 12:59 | 22.31590 | 113.92204 | 37 ft | 8 kts | 250° |
| 2026-05-07 12:59 | 22.31571 | 113.92148 | 37 ft | 8 kts | 250° |
| 2026-05-07 13:00 | 22.31553 | 113.92093 | 37 ft | 8 kts | 250° |
| 2026-05-07 13:00 | 22.31535 | 113.92037 | 37 ft | 8 kts | 251° |
| 2026-05-07 13:00 | 22.31517 | 113.91982 | 37 ft | 8 kts | 251° |
| 2026-05-07 13:00 | 22.31496 | 113.91928 | 37 ft | 8 kts | 237° |
| 2026-05-07 13:01 | 22.31449 | 113.91902 | 37 ft | 8 kts | 185° |
| 2026-05-07 13:01 | 22.31396 | 113.91911 | 37 ft | 8 kts | 163° |
| 2026-05-07 13:01 | 22.31343 | 113.91928 | 37 ft | 8 kts | 163° |
| 2026-05-07 13:01 | 22.31291 | 113.91946 | 37 ft | 8 kts | 161° |
| 2026-05-07 13:02 | 22.31210 | 113.91976 | 37 ft | 15 kts | 161° |
| 2026-05-07 13:02 | 22.31111 | 113.92012 | 37 ft | 15 kts | 161° |
| 2026-05-07 13:02 | 22.31014 | 113.92049 | 37 ft | 15 kts | 161° |
| 2026-05-07 13:02 | 22.30915 | 113.92085 | 37 ft | 15 kts | 161° |
| 2026-05-07 13:03 | 22.30826 | 113.92118 | 37 ft | 12 kts | 161° |
| 2026-05-07 13:03 | 22.30764 | 113.92140 | 37 ft | 8 kts | 162° |
| 2026-05-07 13:03 | 22.30717 | 113.92157 | 37 ft | 6 kts | 167° |
| 2026-05-07 13:03 | 22.30674 | 113.92148 | 37 ft | 7 kts | 212° |
| 2026-05-07 13:04 | 22.30645 | 113.92108 | 37 ft | 10 kts | 242° |
| 2026-05-07 13:04 | 22.30615 | 113.92026 | 37 ft | 22 kts | 251° |
| 2026-05-07 13:04 | 22.30567 | 113.91875 | 37 ft | 21 kts | 251° |
| 2026-05-07 13:04 | 22.30504 | 113.91677 | 37 ft | 21 kts | 250° |
| 2026-05-07 13:05 | 22.30453 | 113.91528 | 37 ft | 21 kts | 250° |
| 2026-05-07 13:05 | 22.30420 | 113.91428 | 37 ft | 21 kts | 250° |
| 2026-05-07 13:05 | 22.30371 | 113.91281 | 37 ft | 21 kts | 251° |
| 2026-05-07 13:05 | 22.30323 | 113.91131 | 37 ft | 21 kts | 250° |
| 2026-05-07 13:06 | 22.30274 | 113.90982 | 37 ft | 21 kts | 251° |
| 2026-05-07 13:06 | 22.30227 | 113.90832 | 37 ft | 21 kts | 251° |
| 2026-05-07 13:06 | 22.30178 | 113.90683 | 37 ft | 21 kts | 251° |
| 2026-05-07 13:06 | 22.30130 | 113.90533 | 37 ft | 21 kts | 250° |
| 2026-05-07 13:07 | 22.30080 | 113.90384 | 37 ft | 21 kts | 250° |
| 2026-05-07 13:07 | 22.30033 | 113.90235 | 37 ft | 21 kts | 252° |
| 2026-05-07 13:07 | 22.29990 | 113.90086 | 37 ft | 21 kts | 252° |
| 2026-05-07 13:07 | 22.29944 | 113.89936 | 37 ft | 21 kts | 251° |
| 2026-05-07 13:08 | 22.29899 | 113.89800 | 37 ft | 16 kts | 250° |
| 2026-05-07 13:08 | 22.29852 | 113.89746 | 37 ft | 7 kts | 195° |
| 2026-05-07 13:08 | 22.29800 | 113.89750 | 37 ft | 7 kts | 169° |
| 2026-05-07 13:08 | 22.29749 | 113.89762 | 37 ft | 7 kts | 165° |
| 2026-05-07 13:09 | 22.29701 | 113.89784 | 36 ft | 8 kts | 151° |
| 2026-05-07 13:09 | 22.29655 | 113.89836 | 35 ft | 10 kts | 116° |
| 2026-05-07 13:09 | 22.29656 | 113.89907 | 35 ft | 10 kts | 71° |
| 2026-05-07 13:09 | 22.29658 | 113.89915 | 35 ft | 0 kts | 70° |
| 2026-05-07 13:10 | 22.29662 | 113.89928 | 35 ft | 11 kts | 70° |
| 2026-05-07 13:10 | 22.29745 | 113.90183 | 35 ft | 71 kts | 71° |
| 2026-05-07 13:10 | 22.29986 | 113.90932 | 36 ft | 137 kts | 70° |
| 2026-05-07 13:11 | 22.30362 | 113.92097 | 47 ft | 187 kts | 71° |
| 2026-05-07 13:11 | 22.30781 | 113.93412 | 717 ft | 184 kts | 71° |
| 2026-05-07 13:11 | 22.31247 | 113.94729 | 1316 ft | 191 kts | 72° |
| 2026-05-07 13:11 | 22.31706 | 113.96141 | 1644 ft | 212 kts | 73° |
| 2026-05-07 13:12 | 22.32204 | 113.97734 | 1882 ft | 236 kts | 72° |
| 2026-05-07 13:12 | 22.32753 | 113.99485 | 2308 ft | 252 kts | 72° |
| 2026-05-07 13:12 | 22.33332 | 114.01308 | 2821 ft | 265 kts | 72° |
| 2026-05-07 13:12 | 22.33861 | 114.03255 | 3468 ft | 269 kts | 84° |
| 2026-05-07 13:13 | 22.33671 | 114.05234 | 4161 ft | 272 kts | 111° |
| 2026-05-07 13:13 | 22.32708 | 114.06988 | 4822 ft | 274 kts | 134° |
| 2026-05-07 13:13 | 22.31193 | 114.08246 | 5034 ft | 280 kts | 155° |
| 2026-05-07 13:13 | 22.29314 | 114.08788 | 5029 ft | 279 kts | 177° |
| 2026-05-07 13:14 | 22.27396 | 114.08703 | 5024 ft | 274 kts | 183° |
| 2026-05-07 13:14 | 22.25482 | 114.08658 | 5074 ft | 276 kts | 180° |
| 2026-05-07 13:14 | 22.23562 | 114.08658 | 5728 ft | 276 kts | 181° |
| 2026-05-07 13:14 | 22.21628 | 114.08652 | 6493 ft | 279 kts | 181° |
| 2026-05-07 13:15 | 22.19680 | 114.08639 | 7201 ft | 281 kts | 182° |
| 2026-05-07 13:15 | 22.17722 | 114.08707 | 7822 ft | 284 kts | 170° |
| 2026-05-07 13:15 | 22.15938 | 114.09601 | 8365 ft | 294 kts | 139° |
| 2026-05-07 13:15 | 22.14718 | 114.11371 | 9007 ft | 296 kts | 118° |
| 2026-05-07 13:16 | 22.13775 | 114.13379 | 9577 ft | 303 kts | 118° |
| 2026-05-07 13:16 | 22.12820 | 114.15420 | 10194 ft | 308 kts | 118° |
| 2026-05-07 13:16 | 22.11825 | 114.17544 | 10474 ft | 328 kts | 118° |
| 2026-05-07 13:16 | 22.10756 | 114.19813 | 10647 ft | 351 kts | 118° |
| 2026-05-07 13:17 | 22.09606 | 114.22238 | 10813 ft | 374 kts | 118° |
| 2026-05-07 13:17 | 22.08394 | 114.24774 | 11213 ft | 384 kts | 120° |
| 2026-05-07 13:17 | 22.06791 | 114.27090 | 11603 ft | 391 kts | 141° |
| 2026-05-07 13:17 | 22.04581 | 114.28779 | 12161 ft | 392 kts | 148° |
| 2026-05-07 13:18 | 22.02312 | 114.30467 | 12894 ft | 398 kts | 146° |
| 2026-05-07 13:18 | 22.00061 | 114.32227 | 13707 ft | 402 kts | 145° |
| 2026-05-07 13:18 | 21.97798 | 114.34018 | 14405 ft | 406 kts | 145° |
| 2026-05-07 13:18 | 21.95504 | 114.35832 | 15065 ft | 411 kts | 145° |
| 2026-05-07 13:19 | 21.93177 | 114.37667 | 15721 ft | 416 kts | 146° |
| 2026-05-07 13:19 | 21.90827 | 114.39517 | 16357 ft | 421 kts | 146° |
| 2026-05-07 13:19 | 21.88448 | 114.41389 | 17009 ft | 426 kts | 146° |
| 2026-05-07 13:19 | 21.86117 | 114.43355 | 17522 ft | 429 kts | 137° |
| 2026-05-07 13:20 | 21.84356 | 114.45990 | 17937 ft | 442 kts | 116° |
| 2026-05-07 13:20 | 21.83417 | 114.49147 | 18439 ft | 444 kts | 104° |
| 2026-05-07 13:20 | 21.82661 | 114.52356 | 18893 ft | 450 kts | 105° |
| 2026-05-07 13:20 | 21.81858 | 114.55623 | 19461 ft | 453 kts | 105° |
| 2026-05-07 13:21 | 21.81029 | 114.58915 | 20049 ft | 456 kts | 105° |
| 2026-05-07 13:21 | 21.80185 | 114.62214 | 20607 ft | 459 kts | 106° |
| 2026-05-07 13:21 | 21.79330 | 114.65534 | 21159 ft | 462 kts | 105° |
| 2026-05-07 13:21 | 21.78466 | 114.68880 | 21730 ft | 465 kts | 105° |
| 2026-05-07 13:22 | 21.77597 | 114.72241 | 22260 ft | 469 kts | 105° |
| 2026-05-07 13:22 | 21.76718 | 114.75644 | 22786 ft | 473 kts | 105° |
| 2026-05-07 13:22 | 21.75832 | 114.79070 | 23292 ft | 477 kts | 105° |
| 2026-05-07 13:22 | 21.74938 | 114.82515 | 23740 ft | 479 kts | 106° |
| 2026-05-07 13:23 | 21.73717 | 114.85861 | 24071 ft | 484 kts | 121° |
| 2026-05-07 13:23 | 21.71729 | 114.88775 | 24444 ft | 485 kts | 131° |
| 2026-05-07 13:23 | 21.69560 | 114.91561 | 24853 ft | 487 kts | 130° |
| 2026-05-07 13:23 | 21.67426 | 114.94398 | 25280 ft | 490 kts | 129° |
| 2026-05-07 13:24 | 21.65331 | 114.97307 | 25698 ft | 493 kts | 128° |
| 2026-05-07 13:24 | 21.63245 | 115.00254 | 26122 ft | 495 kts | 128° |
| 2026-05-07 13:24 | 21.61158 | 115.03207 | 26548 ft | 497 kts | 128° |
| 2026-05-07 13:24 | 21.59082 | 115.06133 | 26961 ft | 500 kts | 128° |
| 2026-05-07 13:25 | 21.56963 | 115.09114 | 27334 ft | 503 kts | 128° |
| 2026-05-07 13:25 | 21.54831 | 115.12107 | 27703 ft | 506 kts | 128° |
| 2026-05-07 13:25 | 21.52684 | 115.15122 | 28084 ft | 509 kts | 128° |
| 2026-05-07 13:25 | 21.50523 | 115.18158 | 28449 ft | 512 kts | 128° |
| 2026-05-07 13:26 | 21.48350 | 115.21214 | 28812 ft | 515 kts | 128° |
| 2026-05-07 13:26 | 21.46174 | 115.24276 | 29186 ft | 517 kts | 128° |
| 2026-05-07 13:26 | 21.43991 | 115.27348 | 29542 ft | 519 kts | 128° |
| 2026-05-07 13:26 | 21.41795 | 115.30435 | 29851 ft | 521 kts | 128° |
| 2026-05-07 13:27 | 21.39583 | 115.33543 | 30157 ft | 524 kts | 128° |
| 2026-05-07 13:27 | 21.37371 | 115.36650 | 30488 ft | 523 kts | 128° |
| 2026-05-07 13:27 | 21.35168 | 115.39743 | 30949 ft | 520 kts | 128° |
| 2026-05-07 13:27 | 21.32972 | 115.42823 | 31402 ft | 518 kts | 128° |
| 2026-05-07 13:28 | 21.30814 | 115.45848 | 31801 ft | 517 kts | 128° |
| 2026-05-07 13:28 | 21.28627 | 115.48911 | 32171 ft | 517 kts | 128° |
| 2026-05-07 13:28 | 21.26443 | 115.51969 | 32544 ft | 516 kts | 128° |
| 2026-05-07 13:28 | 21.24264 | 115.55017 | 32922 ft | 515 kts | 128° |
| 2026-05-07 13:29 | 21.19865 | 115.61168 | 32952 ft | 519 kts | 128° |
| 2026-05-07 13:29 | 21.15499 | 115.67266 | 32936 ft | 513 kts | 128° |
| 2026-05-07 13:30 | 21.11146 | 115.73339 | 32949 ft | 513 kts | 128° |
| 2026-05-07 13:30 | 21.06796 | 115.79402 | 32947 ft | 514 kts | 128° |
| 2026-05-07 13:31 | 21.02462 | 115.85435 | 32946 ft | 514 kts | 128° |
| 2026-05-07 13:31 | 20.98095 | 115.91508 | 32937 ft | 515 kts | 128° |
| 2026-05-07 13:32 | 20.93726 | 115.97579 | 32947 ft | 515 kts | 128° |
| 2026-05-07 13:32 | 20.89351 | 116.03651 | 32943 ft | 515 kts | 128° |
| 2026-05-07 13:33 | 20.84597 | 116.09399 | 32937 ft | 515 kts | 138° |
| 2026-05-07 13:33 | 20.78980 | 116.14116 | 32940 ft | 514 kts | 148° |
| 2026-05-07 13:34 | 20.69926 | 116.20147 | 32942 ft | 513 kts | 149° |
| 2026-05-07 13:35 | 20.63871 | 116.24199 | 32932 ft | 514 kts | 148° |
| 2026-05-07 13:35 | 20.57827 | 116.28281 | 32937 ft | 514 kts | 148° |
| 2026-05-07 13:36 | 20.51790 | 116.32364 | 32940 ft | 514 kts | 148° |
| 2026-05-07 13:36 | 20.45749 | 116.36444 | 32941 ft | 514 kts | 148° |
| 2026-05-07 13:37 | 20.39703 | 116.40521 | 32938 ft | 514 kts | 148° |
| 2026-05-07 13:37 | 20.33649 | 116.44599 | 32937 ft | 514 kts | 148° |
| 2026-05-07 13:38 | 20.27599 | 116.48671 | 32928 ft | 514 kts | 148° |
| 2026-05-07 13:38 | 20.21543 | 116.52742 | 32935 ft | 514 kts | 148° |
| 2026-05-07 13:39 | 20.15491 | 116.56808 | 32933 ft | 514 kts | 148° |
| 2026-05-07 13:39 | 20.09437 | 116.60872 | 32934 ft | 514 kts | 148° |
| 2026-05-07 13:40 | 20.03386 | 116.64940 | 32934 ft | 514 kts | 147° |
| 2026-05-07 13:40 | 19.97827 | 116.69643 | 32932 ft | 514 kts | 136° |
| 2026-05-07 13:41 | 19.92978 | 116.75220 | 32936 ft | 514 kts | 131° |
| 2026-05-07 13:41 | 19.88188 | 116.80874 | 32928 ft | 514 kts | 132° |
| 2026-05-07 13:42 | 19.83368 | 116.86499 | 32932 ft | 514 kts | 132° |
| 2026-05-07 13:42 | 19.78524 | 116.92110 | 32930 ft | 515 kts | 132° |
| 2026-05-07 13:43 | 19.73684 | 116.97704 | 32933 ft | 515 kts | 132° |
| 2026-05-07 13:43 | 19.68837 | 117.03304 | 32932 ft | 515 kts | 132° |
| 2026-05-07 13:44 | 19.63988 | 117.08903 | 32929 ft | 515 kts | 132° |
| 2026-05-07 13:44 | 19.59167 | 117.14465 | 32918 ft | 514 kts | 132° |
| 2026-05-07 13:45 | 19.54323 | 117.20048 | 32927 ft | 514 kts | 132° |
| 2026-05-07 13:45 | 19.49473 | 117.25633 | 32931 ft | 514 kts | 132° |
| 2026-05-07 13:46 | 19.44616 | 117.31221 | 32938 ft | 514 kts | 132° |
| 2026-05-07 13:46 | 19.39764 | 117.36796 | 32927 ft | 515 kts | 132° |
| 2026-05-07 13:47 | 19.34936 | 117.42341 | 32927 ft | 515 kts | 132° |
| 2026-05-07 13:47 | 19.30076 | 117.47916 | 32927 ft | 515 kts | 132° |
| 2026-05-07 13:48 | 19.25217 | 117.53485 | 32923 ft | 515 kts | 132° |
| 2026-05-07 13:48 | 19.20357 | 117.59049 | 32919 ft | 514 kts | 132° |
| 2026-05-07 13:49 | 19.15495 | 117.64612 | 32921 ft | 514 kts | 132° |
| 2026-05-07 13:49 | 19.11452 | 117.69233 | 32925 ft | 514 kts | 132° |
| 2026-05-07 13:50 | 19.05805 | 117.75683 | 32917 ft | 514 kts | 132° |
| 2026-05-07 13:50 | 19.00940 | 117.81231 | 32922 ft | 514 kts | 132° |
| 2026-05-07 13:51 | 18.96076 | 117.86765 | 32922 ft | 514 kts | 132° |
| 2026-05-07 13:51 | 18.92030 | 117.91363 | 32922 ft | 514 kts | 132° |
| 2026-05-07 13:52 | 18.87155 | 117.96902 | 32920 ft | 514 kts | 132° |
| 2026-05-07 13:52 | 18.82285 | 118.02431 | 32913 ft | 514 kts | 132° |
| 2026-05-07 13:53 | 18.77413 | 118.07959 | 32920 ft | 514 kts | 132° |
| 2026-05-07 13:53 | 18.72542 | 118.13479 | 32923 ft | 513 kts | 132° |
| 2026-05-07 13:54 | 18.67674 | 118.18991 | 32918 ft | 513 kts | 132° |
| 2026-05-07 13:54 | 18.62804 | 118.24499 | 32915 ft | 513 kts | 132° |
| 2026-05-07 13:55 | 18.57966 | 118.29968 | 32916 ft | 513 kts | 132° |
| 2026-05-07 13:55 | 18.53092 | 118.35472 | 32912 ft | 513 kts | 132° |
| 2026-05-07 13:56 | 18.48223 | 118.40965 | 32915 ft | 513 kts | 133° |
| 2026-05-07 13:56 | 18.43347 | 118.46461 | 32911 ft | 513 kts | 132° |
| 2026-05-07 13:57 | 18.38474 | 118.51949 | 32913 ft | 512 kts | 132° |
| 2026-05-07 13:57 | 18.33601 | 118.57433 | 32907 ft | 512 kts | 132° |
| 2026-05-07 13:58 | 18.28734 | 118.62905 | 32910 ft | 512 kts | 132° |
| 2026-05-07 13:58 | 18.23865 | 118.68374 | 32909 ft | 512 kts | 132° |
| 2026-05-07 13:59 | 18.19028 | 118.73803 | 32905 ft | 512 kts | 132° |
| 2026-05-07 13:59 | 18.14148 | 118.79276 | 32903 ft | 512 kts | 132° |
| 2026-05-07 14:00 | 18.09266 | 118.84746 | 32908 ft | 512 kts | 132° |
| 2026-05-07 14:00 | 18.04399 | 118.90195 | 32899 ft | 512 kts | 132° |
| 2026-05-07 14:01 | 17.99261 | 118.95366 | 32898 ft | 512 kts | 141° |
| 2026-05-07 14:01 | 17.93335 | 118.99494 | 32898 ft | 511 kts | 151° |
| 2026-05-07 14:02 | 17.87085 | 119.03050 | 32895 ft | 511 kts | 152° |
| 2026-05-07 14:02 | 17.80835 | 119.06609 | 32900 ft | 511 kts | 151° |
| 2026-05-07 14:03 | 17.74642 | 119.10175 | 32894 ft | 511 kts | 151° |
| 2026-05-07 14:03 | 17.68421 | 119.13775 | 32891 ft | 510 kts | 151° |
| 2026-05-07 14:04 | 17.62206 | 119.17372 | 32890 ft | 510 kts | 151° |
| 2026-05-07 14:04 | 17.56007 | 119.20954 | 32888 ft | 509 kts | 151° |
| 2026-05-07 14:05 | 17.49799 | 119.24536 | 32890 ft | 509 kts | 151° |
| 2026-05-07 14:05 | 17.43599 | 119.28112 | 32895 ft | 509 kts | 151° |
| 2026-05-07 14:06 | 17.37394 | 119.31686 | 32891 ft | 508 kts | 151° |
| 2026-05-07 14:06 | 17.31201 | 119.35252 | 32890 ft | 508 kts | 151° |
| 2026-05-07 14:07 | 17.24964 | 119.38840 | 33140 ft | 514 kts | 151° |
| 2026-05-07 14:07 | 17.21834 | 119.40640 | 33556 ft | 511 kts | 151° |
| 2026-05-07 14:07 | 17.18722 | 119.42429 | 33989 ft | 509 kts | 151° |
| 2026-05-07 14:07 | 17.15664 | 119.44185 | 34327 ft | 507 kts | 151° |
| 2026-05-07 14:08 | 17.12532 | 119.45984 | 34639 ft | 507 kts | 151° |
| 2026-05-07 14:08 | 17.09479 | 119.47737 | 34813 ft | 509 kts | 151° |
| 2026-05-07 14:08 | 17.06367 | 119.49522 | 34847 ft | 510 kts | 151° |
| 2026-05-07 14:09 | 17.00174 | 119.53074 | 34871 ft | 505 kts | 151° |
| 2026-05-07 14:09 | 16.94034 | 119.56593 | 34882 ft | 502 kts | 151° |
| 2026-05-07 14:10 | 16.87917 | 119.60096 | 34878 ft | 501 kts | 151° |
| 2026-05-07 14:10 | 16.81723 | 119.63640 | 34895 ft | 514 kts | 151° |
| 2026-05-07 14:11 | 16.75395 | 119.67258 | 34876 ft | 522 kts | 151° |
| 2026-05-07 14:11 | 16.69019 | 119.70901 | 34876 ft | 522 kts | 151° |
| 2026-05-07 14:12 | 16.62650 | 119.74538 | 34879 ft | 521 kts | 151° |
| 2026-05-07 14:12 | 16.56314 | 119.78153 | 34875 ft | 518 kts | 151° |
| 2026-05-07 14:13 | 16.50006 | 119.81749 | 34873 ft | 515 kts | 151° |
| 2026-05-07 14:13 | 16.43764 | 119.85304 | 34878 ft | 513 kts | 151° |
| 2026-05-07 14:14 | 16.37503 | 119.88868 | 34884 ft | 512 kts | 151° |
| 2026-05-07 14:14 | 16.31254 | 119.92422 | 34878 ft | 512 kts | 151° |
| 2026-05-07 14:15 | 16.25005 | 119.95974 | 34880 ft | 512 kts | 151° |
| 2026-05-07 14:15 | 16.18734 | 119.99536 | 34885 ft | 513 kts | 151° |
| 2026-05-07 14:16 | 16.12447 | 120.03104 | 34885 ft | 514 kts | 151° |
| 2026-05-07 14:16 | 16.06162 | 120.06668 | 34897 ft | 514 kts | 151° |
| 2026-05-07 14:17 | 15.99888 | 120.10224 | 34878 ft | 513 kts | 151° |
| 2026-05-07 14:17 | 15.93621 | 120.13774 | 34891 ft | 512 kts | 152° |
| 2026-05-07 14:18 | 15.87412 | 120.17288 | 34901 ft | 510 kts | 152° |
| 2026-05-07 14:18 | 15.81176 | 120.20815 | 34889 ft | 509 kts | 152° |
| 2026-05-07 14:19 | 15.74953 | 120.24332 | 34910 ft | 509 kts | 152° |
| 2026-05-07 14:19 | 15.68737 | 120.27844 | 34900 ft | 509 kts | 152° |
| 2026-05-07 14:20 | 15.62513 | 120.31359 | 34897 ft | 509 kts | 152° |
| 2026-05-07 14:20 | 15.56290 | 120.34879 | 34903 ft | 509 kts | 152° |
| 2026-05-07 14:21 | 15.50100 | 120.38376 | 34913 ft | 510 kts | 152° |
| 2026-05-07 14:21 | 15.43868 | 120.41903 | 34913 ft | 510 kts | 152° |
| 2026-05-07 14:22 | 15.37633 | 120.45425 | 34919 ft | 510 kts | 152° |
| 2026-05-07 14:22 | 15.31405 | 120.48937 | 34933 ft | 509 kts | 152° |
| 2026-05-07 14:23 | 15.25188 | 120.52443 | 34934 ft | 508 kts | 152° |
| 2026-05-07 14:23 | 15.18977 | 120.55952 | 34936 ft | 508 kts | 150° |
| 2026-05-07 14:24 | 15.13050 | 120.59855 | 34941 ft | 508 kts | 147° |
| 2026-05-07 14:24 | 15.07161 | 120.63897 | 34941 ft | 507 kts | 147° |
| 2026-05-07 14:25 | 15.01265 | 120.67900 | 34915 ft | 507 kts | 147° |
| 2026-05-07 14:25 | 14.95359 | 120.71888 | 34909 ft | 506 kts | 147° |
| 2026-05-07 14:26 | 14.89480 | 120.75896 | 34889 ft | 506 kts | 147° |
| 2026-05-07 14:26 | 14.83620 | 120.79923 | 34885 ft | 505 kts | 147° |
| 2026-05-07 14:27 | 14.77755 | 120.83944 | 34883 ft | 505 kts | 147° |
| 2026-05-07 14:27 | 14.71895 | 120.87955 | 34889 ft | 505 kts | 147° |
| 2026-05-07 14:28 | 14.66060 | 120.91913 | 34880 ft | 505 kts | 148° |
| 2026-05-07 14:28 | 14.60179 | 120.95872 | 34912 ft | 504 kts | 148° |
| 2026-05-07 14:29 | 14.54280 | 120.99789 | 34906 ft | 503 kts | 152° |
| 2026-05-07 14:29 | 14.47880 | 121.02621 | 34925 ft | 500 kts | 163° |
| 2026-05-07 14:30 | 14.41109 | 121.04155 | 34924 ft | 498 kts | 171° |
| 2026-05-07 14:30 | 14.34292 | 121.05378 | 34917 ft | 497 kts | 172° |
| 2026-05-07 14:31 | 14.27538 | 121.06625 | 34898 ft | 495 kts | 171° |
| 2026-05-07 14:31 | 14.20774 | 121.07908 | 34895 ft | 494 kts | 171° |
| 2026-05-07 14:32 | 14.14015 | 121.09202 | 34910 ft | 493 kts | 171° |
| 2026-05-07 14:32 | 14.07229 | 121.10491 | 34899 ft | 493 kts | 171° |
| 2026-05-07 14:33 | 14.00527 | 121.11764 | 34917 ft | 494 kts | 171° |
| 2026-05-07 14:33 | 13.93834 | 121.13449 | 34908 ft | 497 kts | 162° |
| 2026-05-07 14:34 | 13.87445 | 121.16219 | 34914 ft | 499 kts | 158° |
| 2026-05-07 14:34 | 13.81080 | 121.19086 | 34917 ft | 500 kts | 158° |
| 2026-05-07 14:35 | 13.74665 | 121.21905 | 34900 ft | 500 kts | 159° |
| 2026-05-07 14:35 | 13.68270 | 121.24759 | 34917 ft | 501 kts | 158° |
| 2026-05-07 14:36 | 13.61927 | 121.27621 | 34907 ft | 500 kts | 158° |
| 2026-05-07 14:36 | 13.55540 | 121.30488 | 34908 ft | 499 kts | 158° |
| 2026-05-07 14:37 | 13.50241 | 121.32850 | 34910 ft | 498 kts | 158° |
| 2026-05-07 14:37 | 13.40669 | 121.37066 | 34922 ft | 498 kts | 159° |
| 2026-05-07 14:38 | 13.34293 | 121.39875 | 34913 ft | 498 kts | 159° |
| 2026-05-07 14:38 | 13.27966 | 121.42665 | 34909 ft | 498 kts | 159° |
| 2026-05-07 14:39 | 13.21598 | 121.45473 | 34911 ft | 498 kts | 159° |
| 2026-05-07 14:39 | 13.15227 | 121.48280 | 34926 ft | 498 kts | 159° |
| 2026-05-07 14:40 | 13.08848 | 121.51090 | 34928 ft | 499 kts | 159° |
| 2026-05-07 14:40 | 13.02464 | 121.53899 | 34903 ft | 500 kts | 159° |
| 2026-05-07 14:41 | 12.96069 | 121.56712 | 34920 ft | 500 kts | 159° |
| 2026-05-07 14:41 | 12.89675 | 121.59523 | 34921 ft | 500 kts | 159° |
| 2026-05-07 14:42 | 12.83285 | 121.62331 | 34911 ft | 500 kts | 159° |
| 2026-05-07 14:42 | 12.76887 | 121.65140 | 34891 ft | 500 kts | 159° |
| 2026-05-07 14:43 | 12.70497 | 121.67945 | 34906 ft | 500 kts | 159° |
| 2026-05-07 14:43 | 12.64150 | 121.70729 | 34904 ft | 500 kts | 159° |
| 2026-05-07 14:44 | 12.57760 | 121.73531 | 34894 ft | 500 kts | 159° |
| 2026-05-07 14:44 | 12.51367 | 121.76332 | 34887 ft | 500 kts | 159° |
| 2026-05-07 14:45 | 12.44976 | 121.79132 | 34893 ft | 500 kts | 159° |
| 2026-05-07 14:45 | 12.38578 | 121.81933 | 34893 ft | 500 kts | 158° |
| 2026-05-07 14:46 | 12.32180 | 121.84729 | 34895 ft | 500 kts | 158° |
| 2026-05-07 14:46 | 12.25786 | 121.87515 | 34890 ft | 500 kts | 158° |
| 2026-05-07 14:47 | 12.19388 | 121.90303 | 34893 ft | 500 kts | 158° |
| 2026-05-07 14:47 | 12.12985 | 121.93093 | 34886 ft | 500 kts | 159° |
| 2026-05-07 14:48 | 12.06588 | 121.95879 | 34888 ft | 500 kts | 158° |
| 2026-05-07 14:48 | 12.00225 | 121.98649 | 34891 ft | 500 kts | 158° |
| 2026-05-07 14:49 | 11.93829 | 122.01432 | 34889 ft | 500 kts | 159° |
| 2026-05-07 14:49 | 11.87422 | 122.04218 | 34891 ft | 500 kts | 159° |
| 2026-05-07 14:50 | 11.81018 | 122.07002 | 34892 ft | 500 kts | 159° |
| 2026-05-07 14:50 | 11.74614 | 122.09784 | 34887 ft | 500 kts | 158° |
| 2026-05-07 14:51 | 11.68239 | 122.12552 | 34897 ft | 501 kts | 158° |
| 2026-05-07 14:51 | 11.61821 | 122.15336 | 34895 ft | 501 kts | 159° |
| 2026-05-07 14:52 | 11.55408 | 122.18118 | 34895 ft | 501 kts | 159° |
| 2026-05-07 14:52 | 11.48999 | 122.20899 | 34899 ft | 501 kts | 158° |
| 2026-05-07 14:53 | 11.42583 | 122.23677 | 34906 ft | 500 kts | 159° |
| 2026-05-07 14:53 | 11.36189 | 122.26447 | 34906 ft | 499 kts | 159° |
| 2026-05-07 14:54 | 11.29802 | 122.29213 | 34900 ft | 498 kts | 159° |
| 2026-05-07 14:54 | 11.23435 | 122.31970 | 34913 ft | 497 kts | 160° |
| 2026-05-07 14:55 | 11.17073 | 122.34722 | 34902 ft | 496 kts | 159° |
| 2026-05-07 14:55 | 11.10714 | 122.37466 | 34912 ft | 496 kts | 158° |
| 2026-05-07 14:56 | 11.04348 | 122.40211 | 34904 ft | 496 kts | 158° |
| 2026-05-07 14:56 | 10.98027 | 122.42937 | 34904 ft | 496 kts | 158° |
| 2026-05-07 14:57 | 10.91670 | 122.45678 | 34894 ft | 496 kts | 158° |
| 2026-05-07 14:57 | 10.85318 | 122.48416 | 34893 ft | 496 kts | 158° |
| 2026-05-07 14:58 | 10.78992 | 122.51240 | 34879 ft | 496 kts | 156° |
| 2026-05-07 14:58 | 10.72737 | 122.54241 | 34886 ft | 497 kts | 156° |
| 2026-05-07 14:59 | 10.66486 | 122.57239 | 34872 ft | 497 kts | 156° |
| 2026-05-07 14:59 | 10.60217 | 122.60209 | 34876 ft | 496 kts | 156° |
| 2026-05-07 15:00 | 10.53938 | 122.63172 | 34866 ft | 497 kts | 156° |
| 2026-05-07 15:00 | 10.47697 | 122.66115 | 34871 ft | 497 kts | 156° |
| 2026-05-07 15:01 | 10.41413 | 122.69083 | 34868 ft | 499 kts | 156° |
| 2026-05-07 15:01 | 10.35113 | 122.72061 | 34868 ft | 500 kts | 155° |
| 2026-05-07 15:02 | 10.28812 | 122.75066 | 34877 ft | 500 kts | 155° |
| 2026-05-07 15:02 | 10.22504 | 122.78074 | 34876 ft | 501 kts | 155° |
| 2026-05-07 15:03 | 10.16192 | 122.81077 | 34878 ft | 501 kts | 156° |
| 2026-05-07 15:03 | 10.09874 | 122.84051 | 34886 ft | 500 kts | 156° |
| 2026-05-07 15:04 | 10.03586 | 122.86999 | 34886 ft | 500 kts | 156° |
| 2026-05-07 15:04 | 9.97267 | 122.89966 | 34889 ft | 500 kts | 156° |
| 2026-05-07 15:05 | 9.90949 | 122.92935 | 34883 ft | 499 kts | 156° |
| 2026-05-07 15:05 | 9.84654 | 122.95891 | 34889 ft | 498 kts | 156° |
| 2026-05-07 15:06 | 9.78370 | 122.98840 | 34895 ft | 497 kts | 156° |
| 2026-05-07 15:06 | 9.72094 | 123.01787 | 34885 ft | 496 kts | 156° |
| 2026-05-07 15:07 | 9.65831 | 123.04727 | 34882 ft | 495 kts | 156° |
| 2026-05-07 15:07 | 9.59581 | 123.07662 | 34884 ft | 495 kts | 156° |
| 2026-05-07 15:08 | 9.53331 | 123.10594 | 34887 ft | 495 kts | 156° |
| 2026-05-07 15:08 | 9.47116 | 123.13507 | 34897 ft | 494 kts | 155° |
| 2026-05-07 15:09 | 9.40862 | 123.16440 | 34888 ft | 494 kts | 155° |
| 2026-05-07 15:09 | 9.34626 | 123.19363 | 34879 ft | 493 kts | 155° |
| 2026-05-07 15:10 | 9.28388 | 123.22286 | 34880 ft | 494 kts | 155° |
| 2026-05-07 15:10 | 9.22152 | 123.25206 | 34885 ft | 494 kts | 155° |
| 2026-05-07 15:11 | 9.15943 | 123.28113 | 34883 ft | 495 kts | 155° |
| 2026-05-07 15:11 | 9.09682 | 123.31043 | 34869 ft | 497 kts | 155° |
| 2026-05-07 15:12 | 9.03395 | 123.33984 | 34878 ft | 498 kts | 155° |
| 2026-05-07 15:12 | 8.97089 | 123.36936 | 34880 ft | 499 kts | 155° |
| 2026-05-07 15:13 | 8.90793 | 123.39883 | 34868 ft | 498 kts | 155° |
| 2026-05-07 15:13 | 8.84500 | 123.42827 | 34864 ft | 497 kts | 155° |
| 2026-05-07 15:14 | 8.78247 | 123.45752 | 34871 ft | 499 kts | 155° |
| 2026-05-07 15:14 | 8.71934 | 123.48702 | 34878 ft | 500 kts | 155° |
| 2026-05-07 15:15 | 8.65604 | 123.51660 | 34879 ft | 502 kts | 155° |
| 2026-05-07 15:15 | 8.59259 | 123.54624 | 34879 ft | 502 kts | 155° |
| 2026-05-07 15:16 | 8.52902 | 123.57593 | 34880 ft | 503 kts | 155° |
| 2026-05-07 15:16 | 8.46537 | 123.60564 | 34879 ft | 504 kts | 155° |
| 2026-05-07 15:17 | 8.40134 | 123.63551 | 35118 ft | 507 kts | 155° |
| 2026-05-07 15:17 | 8.36937 | 123.65042 | 35451 ft | 504 kts | 155° |
| 2026-05-07 15:17 | 8.33796 | 123.66507 | 35799 ft | 502 kts | 155° |
| 2026-05-07 15:18 | 8.30632 | 123.67983 | 36094 ft | 500 kts | 155° |
| 2026-05-07 15:18 | 8.27474 | 123.69455 | 36333 ft | 500 kts | 155° |
| 2026-05-07 15:18 | 8.24313 | 123.70929 | 36507 ft | 501 kts | 155° |
| 2026-05-07 15:18 | 8.21148 | 123.72403 | 36720 ft | 501 kts | 156° |
| 2026-05-07 15:19 | 8.14803 | 123.75359 | 36858 ft | 502 kts | 155° |
| 2026-05-07 15:19 | 8.08504 | 123.78293 | 36878 ft | 495 kts | 155° |
| 2026-05-07 15:20 | 8.02266 | 123.81199 | 36885 ft | 492 kts | 155° |
| 2026-05-07 15:20 | 7.96046 | 123.84093 | 36897 ft | 491 kts | 156° |
| 2026-05-07 15:21 | 7.89833 | 123.86984 | 36888 ft | 492 kts | 156° |
| 2026-05-07 15:21 | 7.83656 | 123.89857 | 36882 ft | 493 kts | 155° |
| 2026-05-07 15:22 | 7.77415 | 123.92761 | 36884 ft | 494 kts | 155° |
| 2026-05-07 15:22 | 7.72206 | 123.95181 | 36882 ft | 496 kts | 155° |
| 2026-05-07 15:23 | 7.65921 | 123.98100 | 36880 ft | 497 kts | 155° |
| 2026-05-07 15:23 | 7.59642 | 124.01018 | 36890 ft | 497 kts | 155° |
| 2026-05-07 15:24 | 7.53357 | 124.03937 | 36877 ft | 497 kts | 155° |
| 2026-05-07 15:24 | 7.47099 | 124.06842 | 36882 ft | 498 kts | 155° |
| 2026-05-07 15:25 | 7.40804 | 124.09766 | 36871 ft | 498 kts | 155° |
| 2026-05-07 15:25 | 7.34498 | 124.12693 | 36874 ft | 499 kts | 155° |
| 2026-05-07 15:26 | 7.28192 | 124.15617 | 36868 ft | 499 kts | 155° |
| 2026-05-07 15:26 | 7.21887 | 124.18541 | 36868 ft | 499 kts | 156° |
| 2026-05-07 15:27 | 7.15557 | 124.21405 | 36861 ft | 499 kts | 160° |
| 2026-05-07 15:27 | 7.09065 | 124.23765 | 36877 ft | 499 kts | 161° |
| 2026-05-07 15:28 | 7.02505 | 124.26087 | 36890 ft | 500 kts | 161° |
| 2026-05-07 15:28 | 6.95948 | 124.28433 | 36883 ft | 501 kts | 161° |
| 2026-05-07 15:29 | 6.89388 | 124.30803 | 36895 ft | 501 kts | 161° |
| 2026-05-07 15:29 | 6.82834 | 124.33174 | 36895 ft | 500 kts | 160° |
| 2026-05-07 15:30 | 6.76274 | 124.35545 | 36904 ft | 500 kts | 161° |
| 2026-05-07 15:30 | 6.69759 | 124.37897 | 36904 ft | 499 kts | 160° |
| 2026-05-07 15:31 | 6.63210 | 124.40262 | 36894 ft | 499 kts | 161° |
| 2026-05-07 15:31 | 6.56675 | 124.42620 | 36912 ft | 499 kts | 161° |
| 2026-05-07 15:32 | 6.50139 | 124.44978 | 36911 ft | 499 kts | 161° |
| 2026-05-07 15:32 | 6.43641 | 124.47321 | 36898 ft | 498 kts | 161° |
| 2026-05-07 15:33 | 6.37111 | 124.49676 | 36899 ft | 500 kts | 161° |
| 2026-05-07 15:33 | 6.30550 | 124.52042 | 36914 ft | 502 kts | 161° |
| 2026-05-07 15:34 | 6.23952 | 124.54420 | 36911 ft | 503 kts | 161° |
| 2026-05-07 15:34 | 6.17347 | 124.56801 | 36911 ft | 505 kts | 161° |
| 2026-05-07 15:35 | 6.10768 | 124.59177 | 36908 ft | 505 kts | 161° |
| 2026-05-07 15:35 | 6.04142 | 124.61569 | 36905 ft | 506 kts | 161° |
| 2026-05-07 15:36 | 5.97517 | 124.63961 | 36880 ft | 506 kts | 161° |
| 2026-05-07 15:36 | 5.90894 | 124.66350 | 36904 ft | 505 kts | 161° |
| 2026-05-07 15:37 | 5.84285 | 124.68735 | 36884 ft | 503 kts | 161° |
| 2026-05-07 15:37 | 5.77714 | 124.71104 | 36869 ft | 501 kts | 161° |
| 2026-05-07 15:38 | 5.71148 | 124.73472 | 36858 ft | 500 kts | 161° |
| 2026-05-07 15:38 | 5.64646 | 124.75816 | 36858 ft | 499 kts | 161° |
| 2026-05-07 15:39 | 5.58108 | 124.78172 | 36870 ft | 498 kts | 161° |
| 2026-05-07 15:39 | 5.51574 | 124.80526 | 36870 ft | 498 kts | 161° |
| 2026-05-07 15:40 | 5.45045 | 124.82878 | 36859 ft | 499 kts | 161° |
| 2026-05-07 15:40 | 5.38538 | 124.85221 | 36855 ft | 499 kts | 161° |
| 2026-05-07 15:41 | 5.31996 | 124.87576 | 36869 ft | 500 kts | 161° |
| 2026-05-07 15:41 | 5.25438 | 124.89937 | 36860 ft | 500 kts | 161° |
| 2026-05-07 15:42 | 5.18882 | 124.92297 | 36857 ft | 500 kts | 161° |
| 2026-05-07 15:42 | 5.12331 | 124.94654 | 36855 ft | 500 kts | 161° |
| 2026-05-07 15:43 | 5.05777 | 124.97011 | 36869 ft | 500 kts | 161° |
| 2026-05-07 15:43 | 4.99278 | 124.99349 | 36872 ft | 499 kts | 161° |
| 2026-05-07 15:44 | 4.92730 | 125.01703 | 36858 ft | 499 kts | 160° |
| 2026-05-07 15:44 | 4.86201 | 125.04050 | 36865 ft | 498 kts | 160° |
| 2026-05-07 15:45 | 4.79671 | 125.06397 | 36859 ft | 498 kts | 160° |
| 2026-05-07 15:45 | 4.73144 | 125.08743 | 36858 ft | 498 kts | 160° |
| 2026-05-07 15:46 | 4.63356 | 125.12259 | 36861 ft | 498 kts | 160° |
| 2026-05-07 15:47 | 4.56839 | 125.14600 | 36858 ft | 497 kts | 160° |
| 2026-05-07 15:47 | 4.50373 | 125.16922 | 36866 ft | 497 kts | 160° |
| 2026-05-07 15:48 | 4.43870 | 125.19257 | 36854 ft | 496 kts | 160° |
| 2026-05-07 15:48 | 4.37369 | 125.21591 | 36860 ft | 496 kts | 160° |
| 2026-05-07 15:49 | 4.30873 | 125.23922 | 36859 ft | 496 kts | 160° |
| 2026-05-07 15:49 | 4.24379 | 125.26253 | 36853 ft | 496 kts | 160° |
| 2026-05-07 15:50 | 4.17877 | 125.28586 | 36859 ft | 496 kts | 160° |
| 2026-05-07 15:50 | 4.11369 | 125.30921 | 36861 ft | 496 kts | 160° |
| 2026-05-07 15:51 | 4.04868 | 125.33253 | 36855 ft | 496 kts | 160° |
| 2026-05-07 15:51 | 3.98364 | 125.35575 | 36858 ft | 496 kts | 161° |
| 2026-05-07 15:52 | 3.91848 | 125.37756 | 36856 ft | 496 kts | 162° |
| 2026-05-07 15:52 | 3.85286 | 125.39897 | 36862 ft | 496 kts | 162° |
| 2026-05-07 15:53 | 3.78723 | 125.42053 | 36866 ft | 496 kts | 162° |
| 2026-05-07 15:53 | 3.72171 | 125.44221 | 36864 ft | 496 kts | 162° |
| 2026-05-07 15:54 | 3.65617 | 125.46395 | 36860 ft | 496 kts | 162° |
| 2026-05-07 15:54 | 3.59072 | 125.48565 | 36862 ft | 496 kts | 162° |
| 2026-05-07 15:55 | 3.52516 | 125.50738 | 36868 ft | 496 kts | 162° |
| 2026-05-07 15:55 | 3.45956 | 125.52912 | 36861 ft | 496 kts | 162° |
| 2026-05-07 15:56 | 3.39436 | 125.55071 | 36861 ft | 497 kts | 162° |
| 2026-05-07 15:56 | 3.32876 | 125.57244 | 36858 ft | 497 kts | 162° |
| 2026-05-07 15:57 | 3.26308 | 125.59419 | 36856 ft | 497 kts | 162° |
| 2026-05-07 15:57 | 3.19735 | 125.61595 | 36856 ft | 497 kts | 162° |
| 2026-05-07 15:58 | 3.13157 | 125.63773 | 36859 ft | 497 kts | 162° |
| 2026-05-07 15:58 | 3.06589 | 125.65948 | 36863 ft | 497 kts | 162° |
| 2026-05-07 15:59 | 3.00016 | 125.68123 | 36862 ft | 497 kts | 162° |
| 2026-05-07 15:59 | 2.93444 | 125.70298 | 36855 ft | 496 kts | 162° |
| 2026-05-07 16:00 | 2.86931 | 125.72453 | 36859 ft | 496 kts | 162° |
| 2026-05-07 16:00 | 2.80370 | 125.74624 | 36859 ft | 495 kts | 162° |
| 2026-05-07 16:01 | 2.73828 | 125.76788 | 36855 ft | 495 kts | 162° |
| 2026-05-07 16:01 | 2.67283 | 125.78954 | 36855 ft | 495 kts | 162° |
| 2026-05-07 16:02 | 2.60743 | 125.81117 | 36852 ft | 495 kts | 162° |
| 2026-05-07 16:02 | 2.54201 | 125.83280 | 36853 ft | 495 kts | 162° |
| 2026-05-07 16:03 | 2.47655 | 125.85445 | 36860 ft | 495 kts | 162° |
| 2026-05-07 16:03 | 2.41115 | 125.87607 | 36854 ft | 495 kts | 162° |
| 2026-05-07 16:04 | 2.34569 | 125.89772 | 36852 ft | 495 kts | 162° |
| 2026-05-07 16:04 | 2.28077 | 125.91918 | 36856 ft | 495 kts | 162° |
| 2026-05-07 16:05 | 2.21530 | 125.94082 | 36854 ft | 495 kts | 162° |
| 2026-05-07 16:05 | 2.14985 | 125.96246 | 36857 ft | 495 kts | 162° |
| 2026-05-07 16:06 | 2.08444 | 125.98408 | 36857 ft | 495 kts | 162° |
| 2026-05-07 16:06 | 2.01904 | 126.00570 | 36855 ft | 495 kts | 162° |
| 2026-05-07 16:07 | 1.95400 | 126.02839 | 36853 ft | 495 kts | 159° |
| 2026-05-07 16:07 | 1.88988 | 126.05364 | 36853 ft | 495 kts | 158° |
| 2026-05-07 16:08 | 1.82586 | 126.07914 | 36854 ft | 495 kts | 159° |
| 2026-05-07 16:08 | 1.76206 | 126.10413 | 36857 ft | 495 kts | 159° |
| 2026-05-07 16:09 | 1.69777 | 126.12904 | 36857 ft | 495 kts | 159° |
| 2026-05-07 16:09 | 1.63347 | 126.15390 | 36860 ft | 495 kts | 159° |
| 2026-05-07 16:10 | 1.58008 | 126.17454 | 36858 ft | 495 kts | 159° |
| 2026-05-07 16:10 | 1.51582 | 126.19940 | 36856 ft | 495 kts | 159° |
| 2026-05-07 16:11 | 1.45158 | 126.22427 | 36851 ft | 494 kts | 159° |
| 2026-05-07 16:11 | 1.38744 | 126.24909 | 36857 ft | 494 kts | 159° |
| 2026-05-07 16:12 | 1.32334 | 126.27390 | 36850 ft | 494 kts | 159° |
| 2026-05-07 16:12 | 1.25926 | 126.29870 | 36851 ft | 493 kts | 159° |
| 2026-05-07 16:13 | 1.19518 | 126.32349 | 36857 ft | 493 kts | 159° |
| 2026-05-07 16:13 | 1.13157 | 126.34810 | 36853 ft | 494 kts | 159° |
| 2026-05-07 16:14 | 1.06745 | 126.37292 | 36857 ft | 494 kts | 159° |
| 2026-05-07 16:14 | 1.00331 | 126.39773 | 36854 ft | 494 kts | 159° |
| 2026-05-07 16:15 | 0.93920 | 126.42253 | 36851 ft | 494 kts | 159° |
| 2026-05-07 16:15 | 0.87507 | 126.44734 | 36856 ft | 494 kts | 159° |
| 2026-05-07 16:16 | 0.81134 | 126.47200 | 36855 ft | 494 kts | 159° |
| 2026-05-07 16:16 | 0.74682 | 126.49696 | 36851 ft | 494 kts | 159° |
| 2026-05-07 16:17 | 0.68304 | 126.52163 | 36858 ft | 494 kts | 159° |
| 2026-05-07 16:17 | 0.61885 | 126.54646 | 36845 ft | 494 kts | 159° |
| 2026-05-07 16:18 | 0.55465 | 126.57129 | 36850 ft | 494 kts | 159° |
| 2026-05-07 16:18 | 0.49052 | 126.59610 | 36855 ft | 494 kts | 159° |
| 2026-05-07 16:19 | 0.42683 | 126.62073 | 36854 ft | 494 kts | 159° |
| 2026-05-07 16:19 | 0.36260 | 126.64557 | 36854 ft | 494 kts | 159° |
| 2026-05-07 16:20 | 0.29851 | 126.67036 | 36852 ft | 494 kts | 159° |
| 2026-05-07 16:20 | 0.23429 | 126.69520 | 36855 ft | 494 kts | 159° |
| 2026-05-07 16:21 | 0.17015 | 126.72001 | 36852 ft | 494 kts | 159° |
| 2026-05-07 16:21 | 0.10639 | 126.74467 | 36856 ft | 494 kts | 159° |
| 2026-05-07 16:22 | 0.04222 | 126.76949 | 36850 ft | 494 kts | 159° |
| 2026-05-07 16:22 | -0.02187 | 126.79428 | 36853 ft | 494 kts | 159° |
| 2026-05-07 16:23 | -0.08616 | 126.81914 | 36853 ft | 495 kts | 159° |
| 2026-05-07 16:23 | -0.15040 | 126.84398 | 36854 ft | 495 kts | 159° |
| 2026-05-07 16:24 | -0.21471 | 126.86886 | 36852 ft | 495 kts | 159° |
| 2026-05-07 16:24 | -0.27902 | 126.89373 | 36847 ft | 496 kts | 159° |
| 2026-05-07 16:25 | -0.34337 | 126.91862 | 36854 ft | 496 kts | 159° |
| 2026-05-07 16:25 | -0.40763 | 126.94348 | 36852 ft | 495 kts | 159° |
| 2026-05-07 16:26 | -0.47189 | 126.96833 | 36850 ft | 495 kts | 159° |
| 2026-05-07 16:26 | -0.53608 | 126.99316 | 36851 ft | 494 kts | 159° |
| 2026-05-07 16:27 | -0.59987 | 127.01783 | 36850 ft | 494 kts | 159° |
| 2026-05-07 16:27 | -0.66405 | 127.04266 | 36851 ft | 494 kts | 159° |
| 2026-05-07 16:28 | -0.72813 | 127.06744 | 36851 ft | 494 kts | 159° |
| 2026-05-07 16:28 | -0.79227 | 127.09226 | 36855 ft | 494 kts | 159° |
| 2026-05-07 16:29 | -0.85631 | 127.11703 | 36851 ft | 494 kts | 159° |
| 2026-05-07 16:29 | -0.92043 | 127.14184 | 36851 ft | 494 kts | 159° |
| 2026-05-07 16:30 | -0.98455 | 127.16664 | 36849 ft | 494 kts | 159° |
| 2026-05-07 16:30 | -1.04872 | 127.19147 | 36852 ft | 494 kts | 159° |
| 2026-05-07 16:31 | -1.11284 | 127.21628 | 36853 ft | 494 kts | 159° |
| 2026-05-07 16:31 | -1.17700 | 127.24110 | 36849 ft | 495 kts | 159° |
| 2026-05-07 16:32 | -1.24119 | 127.26594 | 36850 ft | 495 kts | 159° |
| 2026-05-07 16:32 | -1.30503 | 127.29065 | 36850 ft | 495 kts | 159° |
| 2026-05-07 16:33 | -1.36932 | 127.31553 | 36855 ft | 495 kts | 159° |
| 2026-05-07 16:33 | -1.43367 | 127.34043 | 36866 ft | 495 kts | 159° |
| 2026-05-07 16:34 | -1.49798 | 127.36532 | 36864 ft | 495 kts | 159° |
| 2026-05-07 16:34 | -1.56228 | 127.39021 | 36859 ft | 495 kts | 159° |
| 2026-05-07 16:35 | -1.62616 | 127.41494 | 36863 ft | 495 kts | 159° |
| 2026-05-07 16:35 | -1.69048 | 127.43983 | 36862 ft | 495 kts | 159° |
| 2026-05-07 16:36 | -1.75464 | 127.46467 | 36859 ft | 494 kts | 159° |
| 2026-05-07 16:36 | -1.81881 | 127.48952 | 36859 ft | 494 kts | 159° |
| 2026-05-07 16:37 | -1.88310 | 127.51441 | 36853 ft | 495 kts | 158° |
| 2026-05-07 16:37 | -1.94740 | 127.53931 | 36856 ft | 495 kts | 159° |
| 2026-05-07 16:38 | -2.01174 | 127.56422 | 36855 ft | 496 kts | 159° |
| 2026-05-07 16:38 | -2.07575 | 127.58901 | 36858 ft | 497 kts | 158° |
| 2026-05-07 16:39 | -2.14029 | 127.61401 | 36852 ft | 497 kts | 158° |
| 2026-05-07 16:39 | -2.20490 | 127.63904 | 36854 ft | 498 kts | 158° |
| 2026-05-07 16:40 | -2.26948 | 127.66406 | 36854 ft | 498 kts | 159° |
| 2026-05-07 16:40 | -2.33414 | 127.68911 | 36856 ft | 498 kts | 158° |
| 2026-05-07 16:41 | -2.39884 | 127.71418 | 36851 ft | 498 kts | 159° |
| 2026-05-07 16:41 | -2.46347 | 127.73922 | 36856 ft | 498 kts | 159° |
| 2026-05-07 16:42 | -2.52771 | 127.76412 | 36856 ft | 498 kts | 159° |
| 2026-05-07 16:42 | -2.59231 | 127.78916 | 36855 ft | 497 kts | 159° |
| 2026-05-07 16:43 | -2.65695 | 127.81422 | 36854 ft | 497 kts | 159° |
| 2026-05-07 16:43 | -2.72151 | 127.83925 | 36856 ft | 497 kts | 159° |
| 2026-05-07 16:44 | -2.78607 | 127.86428 | 36861 ft | 497 kts | 159° |
| 2026-05-07 16:44 | -2.85054 | 127.88928 | 36858 ft | 497 kts | 159° |
| 2026-05-07 16:45 | -2.91506 | 127.91430 | 36857 ft | 497 kts | 159° |
| 2026-05-07 16:45 | -2.97913 | 127.93915 | 36859 ft | 497 kts | 159° |
| 2026-05-07 16:46 | -3.04365 | 127.96418 | 36858 ft | 497 kts | 159° |
| 2026-05-07 16:46 | -3.10817 | 127.98921 | 36854 ft | 497 kts | 159° |
| 2026-05-07 16:47 | -3.17273 | 128.01427 | 36873 ft | 497 kts | 159° |
| 2026-05-07 16:47 | -3.23730 | 128.03932 | 36869 ft | 498 kts | 159° |
| 2026-05-07 16:48 | -3.30194 | 128.06441 | 36869 ft | 498 kts | 159° |
| 2026-05-07 16:48 | -3.36658 | 128.08951 | 36872 ft | 498 kts | 159° |
| 2026-05-07 16:49 | -3.43088 | 128.11447 | 36873 ft | 498 kts | 159° |
| 2026-05-07 16:49 | -3.49542 | 128.13954 | 36870 ft | 498 kts | 159° |
| 2026-05-07 16:50 | -3.56007 | 128.16465 | 36862 ft | 498 kts | 159° |
| 2026-05-07 16:50 | -3.62486 | 128.18930 | 36858 ft | 497 kts | 162° |
| 2026-05-07 16:51 | -3.69062 | 128.20921 | 36863 ft | 497 kts | 163° |
| 2026-05-07 16:51 | -3.75704 | 128.22852 | 36859 ft | 497 kts | 163° |
| 2026-05-07 16:52 | -3.82350 | 128.24801 | 36870 ft | 497 kts | 163° |
| 2026-05-07 16:52 | -3.88982 | 128.26768 | 36865 ft | 497 kts | 163° |
| 2026-05-07 16:53 | -3.95580 | 128.28734 | 36857 ft | 498 kts | 163° |
| 2026-05-07 16:53 | -4.02227 | 128.30714 | 36872 ft | 499 kts | 163° |
| 2026-05-07 16:54 | -4.08894 | 128.32700 | 36872 ft | 500 kts | 163° |
| 2026-05-07 16:54 | -4.15581 | 128.34691 | 36867 ft | 501 kts | 163° |
| 2026-05-07 16:55 | -4.22276 | 128.36685 | 36856 ft | 502 kts | 163° |
| 2026-05-07 16:55 | -4.28989 | 128.38685 | 36864 ft | 504 kts | 163° |
| 2026-05-07 16:56 | -4.35674 | 128.40676 | 36875 ft | 505 kts | 163° |
| 2026-05-07 16:56 | -4.45796 | 128.43693 | 36865 ft | 506 kts | 163° |
| 2026-05-07 16:57 | -4.52549 | 128.45706 | 36863 ft | 506 kts | 164° |
| 2026-05-07 16:57 | -4.59307 | 128.47721 | 36863 ft | 507 kts | 164° |
| 2026-05-07 16:58 | -4.64926 | 128.49396 | 36866 ft | 507 kts | 163° |
| 2026-05-07 16:58 | -4.71695 | 128.51415 | 36859 ft | 507 kts | 164° |
| 2026-05-07 16:59 | -4.78461 | 128.53433 | 36869 ft | 507 kts | 164° |
| 2026-05-07 16:59 | -4.85227 | 128.55452 | 36859 ft | 507 kts | 164° |
| 2026-05-07 17:00 | -4.91955 | 128.57460 | 36862 ft | 507 kts | 164° |
| 2026-05-07 17:00 | -4.98712 | 128.59476 | 36868 ft | 506 kts | 164° |
| 2026-05-07 17:01 | -5.05475 | 128.61496 | 36855 ft | 507 kts | 164° |
| 2026-05-07 17:01 | -5.12231 | 128.63513 | 36867 ft | 506 kts | 164° |
| 2026-05-07 17:02 | -5.18985 | 128.65531 | 36866 ft | 506 kts | 165° |
| 2026-05-07 17:02 | -5.25743 | 128.67549 | 36863 ft | 506 kts | 164° |
| 2026-05-07 17:03 | -5.32484 | 128.69563 | 36862 ft | 506 kts | 165° |
| 2026-05-07 17:03 | -5.39233 | 128.71581 | 36862 ft | 506 kts | 165° |
| 2026-05-07 17:04 | -5.45976 | 128.73597 | 36865 ft | 506 kts | 165° |
| 2026-05-07 17:04 | -5.52691 | 128.75605 | 36866 ft | 506 kts | 165° |
| 2026-05-07 17:05 | -5.59444 | 128.77624 | 36862 ft | 506 kts | 165° |
| 2026-05-07 17:05 | -5.66213 | 128.79650 | 36864 ft | 506 kts | 165° |
| 2026-05-07 17:06 | -5.72965 | 128.81670 | 36867 ft | 506 kts | 165° |
| 2026-05-07 17:06 | -5.79722 | 128.83693 | 36864 ft | 507 kts | 165° |
| 2026-05-07 17:07 | -5.86474 | 128.85714 | 36868 ft | 506 kts | 165° |
| 2026-05-07 17:07 | -5.93192 | 128.87726 | 36863 ft | 507 kts | 165° |
| 2026-05-07 17:08 | -5.99952 | 128.89751 | 36870 ft | 507 kts | 165° |
| 2026-05-07 17:08 | -6.06712 | 128.91776 | 36867 ft | 507 kts | 166° |
| 2026-05-07 17:09 | -6.13479 | 128.93804 | 36877 ft | 507 kts | 165° |
| 2026-05-07 17:09 | -6.20256 | 128.95836 | 36867 ft | 508 kts | 165° |
| 2026-05-07 17:10 | -6.27032 | 128.97868 | 36874 ft | 508 kts | 165° |
| 2026-05-07 17:10 | -6.33769 | 128.99889 | 36867 ft | 508 kts | 166° |
| 2026-05-07 17:11 | -6.40551 | 129.01923 | 36878 ft | 508 kts | 165° |
| 2026-05-07 17:11 | -6.47334 | 129.03959 | 36868 ft | 508 kts | 166° |
| 2026-05-07 17:12 | -6.54111 | 129.05994 | 36880 ft | 508 kts | 165° |
| 2026-05-07 17:12 | -6.60888 | 129.08029 | 36871 ft | 508 kts | 166° |
| 2026-05-07 17:13 | -6.67621 | 129.10051 | 36878 ft | 508 kts | 165° |
| 2026-05-07 17:13 | -6.74382 | 129.12082 | 36874 ft | 507 kts | 166° |
| 2026-05-07 17:14 | -6.81159 | 129.14119 | 36880 ft | 507 kts | 165° |
| 2026-05-07 17:14 | -6.87917 | 129.16150 | 36875 ft | 507 kts | 165° |
| 2026-05-07 17:15 | -6.94674 | 129.18183 | 36881 ft | 506 kts | 165° |
| 2026-05-07 17:15 | -7.01420 | 129.20212 | 36878 ft | 506 kts | 165° |
| 2026-05-07 17:16 | -7.08166 | 129.22242 | 36882 ft | 506 kts | 165° |
| 2026-05-07 17:16 | -7.14871 | 129.24260 | 36880 ft | 506 kts | 166° |
| 2026-05-07 17:17 | -7.21622 | 129.26292 | 36878 ft | 506 kts | 165° |
| 2026-05-07 17:17 | -7.28366 | 129.28323 | 36879 ft | 506 kts | 166° |
| 2026-05-07 17:18 | -7.35121 | 129.30358 | 36885 ft | 506 kts | 165° |
| 2026-05-07 17:18 | -7.41878 | 129.32395 | 36883 ft | 507 kts | 165° |
| 2026-05-07 17:19 | -7.48640 | 129.34433 | 36882 ft | 507 kts | 165° |
| 2026-05-07 17:19 | -7.55403 | 129.36473 | 36884 ft | 507 kts | 165° |
| 2026-05-07 17:20 | -7.62165 | 129.38513 | 36883 ft | 507 kts | 165° |
| 2026-05-07 17:20 | -7.68931 | 129.40554 | 36887 ft | 507 kts | 165° |
| 2026-05-07 17:21 | -7.75696 | 129.42597 | 36889 ft | 507 kts | 165° |
| 2026-05-07 17:21 | -7.82403 | 129.44622 | 36889 ft | 507 kts | 165° |
| 2026-05-07 17:22 | -7.89157 | 129.46662 | 36888 ft | 506 kts | 165° |
| 2026-05-07 17:22 | -7.95907 | 129.48702 | 36884 ft | 507 kts | 166° |
| 2026-05-07 17:23 | -8.02678 | 129.50748 | 36898 ft | 507 kts | 166° |
| 2026-05-07 17:23 | -8.09443 | 129.52794 | 36890 ft | 508 kts | 166° |
| 2026-05-07 17:24 | -8.16215 | 129.54842 | 36897 ft | 508 kts | 166° |
| 2026-05-07 17:24 | -8.22987 | 129.56892 | 36897 ft | 508 kts | 166° |
| 2026-05-07 17:25 | -8.29761 | 129.58942 | 36888 ft | 508 kts | 166° |
| 2026-05-07 17:25 | -8.36541 | 129.60995 | 36895 ft | 508 kts | 166° |
| 2026-05-07 17:26 | -8.43311 | 129.63047 | 36893 ft | 508 kts | 165° |
| 2026-05-07 17:26 | -8.50081 | 129.65099 | 36895 ft | 508 kts | 165° |
| 2026-05-07 17:27 | -8.56846 | 129.67157 | 36891 ft | 508 kts | 165° |
| 2026-05-07 17:27 | -8.63601 | 129.69292 | 36896 ft | 508 kts | 165° |
| 2026-05-07 17:28 | -8.70295 | 129.71431 | 36894 ft | 508 kts | 165° |
| 2026-05-07 17:28 | -8.77043 | 129.73579 | 36902 ft | 508 kts | 165° |
| 2026-05-07 17:29 | -8.83787 | 129.75719 | 36892 ft | 507 kts | 165° |
| 2026-05-07 17:29 | -8.90523 | 129.77855 | 36900 ft | 507 kts | 165° |
| 2026-05-07 17:30 | -8.97256 | 129.79992 | 36897 ft | 507 kts | 165° |
| 2026-05-07 17:30 | -9.03990 | 129.82130 | 36909 ft | 507 kts | 165° |
| 2026-05-07 17:31 | -9.10723 | 129.84269 | 36900 ft | 507 kts | 165° |
| 2026-05-07 17:31 | -9.17453 | 129.86408 | 36902 ft | 507 kts | 165° |
| 2026-05-07 17:32 | -9.24186 | 129.88548 | 36904 ft | 507 kts | 165° |
| 2026-05-07 17:32 | -9.29779 | 129.90328 | 36908 ft | 507 kts | 165° |
| 2026-05-07 17:33 | -9.37605 | 129.92818 | 36904 ft | 507 kts | 165° |
| 2026-05-07 17:33 | -9.44350 | 129.94956 | 36904 ft | 507 kts | 165° |
| 2026-05-07 17:34 | -9.51095 | 129.97055 | 36907 ft | 507 kts | 165° |
| 2026-05-07 17:34 | -9.57852 | 129.99152 | 36915 ft | 508 kts | 165° |
| 2026-05-07 17:35 | -9.64615 | 130.01257 | 36910 ft | 508 kts | 165° |
| 2026-05-07 17:35 | -9.71368 | 130.03364 | 36910 ft | 508 kts | 165° |
| 2026-05-07 17:36 | -9.78093 | 130.05464 | 36912 ft | 508 kts | 165° |
| 2026-05-07 17:36 | -9.84851 | 130.07575 | 36917 ft | 508 kts | 165° |
| 2026-05-07 17:37 | -9.91615 | 130.09688 | 36912 ft | 508 kts | 165° |
| 2026-05-07 17:37 | -9.98375 | 130.11801 | 36915 ft | 508 kts | 165° |
| 2026-05-07 17:38 | -10.05135 | 130.13915 | 36912 ft | 508 kts | 165° |
| 2026-05-07 17:38 | -10.11892 | 130.16028 | 36919 ft | 508 kts | 165° |
| 2026-05-07 17:39 | -10.18650 | 130.18144 | 36915 ft | 508 kts | 166° |
| 2026-05-07 17:39 | -10.25356 | 130.20243 | 36915 ft | 507 kts | 166° |
| 2026-05-07 17:40 | -10.32106 | 130.22357 | 36917 ft | 507 kts | 166° |
| 2026-05-07 17:40 | -10.38847 | 130.24470 | 36922 ft | 507 kts | 166° |
| 2026-05-07 17:41 | -10.45597 | 130.26587 | 36914 ft | 507 kts | 166° |
| 2026-05-07 17:41 | -10.52341 | 130.28702 | 36922 ft | 507 kts | 166° |
| 2026-05-07 17:42 | -10.59094 | 130.30821 | 36915 ft | 508 kts | 166° |
| 2026-05-07 17:42 | -10.65850 | 130.32942 | 36929 ft | 508 kts | 166° |
| 2026-05-07 17:43 | -10.71469 | 130.34707 | 36926 ft | 508 kts | 166° |
| 2026-05-07 17:43 | -10.78229 | 130.36832 | 36927 ft | 509 kts | 166° |
| 2026-05-07 17:44 | -10.84996 | 130.38960 | 36927 ft | 509 kts | 166° |
| 2026-05-07 17:44 | -10.91758 | 130.41116 | 36924 ft | 509 kts | 165° |
| 2026-05-07 17:45 | -10.98489 | 130.43385 | 36932 ft | 509 kts | 165° |
| 2026-05-07 17:45 | -11.05212 | 130.45678 | 36933 ft | 509 kts | 165° |
| 2026-05-07 17:46 | -11.11897 | 130.47944 | 36925 ft | 509 kts | 165° |
| 2026-05-07 17:46 | -11.18625 | 130.50214 | 36933 ft | 509 kts | 165° |
| 2026-05-07 17:47 | -11.25349 | 130.52480 | 36936 ft | 509 kts | 165° |
| 2026-05-07 17:47 | -11.32080 | 130.54750 | 36935 ft | 509 kts | 165° |
| 2026-05-07 17:48 | -11.38804 | 130.57020 | 36938 ft | 509 kts | 165° |
| 2026-05-07 17:48 | -11.45540 | 130.59296 | 36950 ft | 509 kts | 165° |
| 2026-05-07 17:49 | -11.52224 | 130.61555 | 36942 ft | 509 kts | 165° |
| 2026-05-07 17:49 | -11.58947 | 130.63828 | 36941 ft | 509 kts | 165° |
| 2026-05-07 17:50 | -11.65688 | 130.66109 | 36939 ft | 509 kts | 165° |
| 2026-05-07 17:50 | -11.72410 | 130.68384 | 36947 ft | 509 kts | 165° |
| 2026-05-07 17:51 | -11.79136 | 130.70662 | 36948 ft | 508 kts | 165° |
| 2026-05-07 17:51 | -11.85854 | 130.72938 | 36947 ft | 508 kts | 165° |
| 2026-05-07 17:52 | -11.92518 | 130.75197 | 36946 ft | 508 kts | 165° |
| 2026-05-07 17:52 | -11.99233 | 130.77475 | 36952 ft | 508 kts | 165° |
| 2026-05-07 17:53 | -12.05954 | 130.79756 | 36951 ft | 508 kts | 165° |
| 2026-05-07 17:53 | -12.12660 | 130.82032 | 36958 ft | 508 kts | 165° |
| 2026-05-07 17:54 | -12.19335 | 130.84300 | 36961 ft | 508 kts | 165° |
| 2026-05-07 17:54 | -12.26051 | 130.86583 | 36976 ft | 508 kts | 165° |
| 2026-05-07 17:55 | -12.32771 | 130.88868 | 36969 ft | 509 kts | 165° |
| 2026-05-07 17:55 | -12.39502 | 130.91159 | 36968 ft | 509 kts | 165° |
| 2026-05-07 17:56 | -12.46223 | 130.93447 | 36967 ft | 509 kts | 165° |
| 2026-05-07 17:56 | -12.52950 | 130.95738 | 36975 ft | 509 kts | 166° |
| 2026-05-07 17:57 | -12.58550 | 130.97647 | 36972 ft | 510 kts | 166° |
| 2026-05-07 17:57 | -12.66376 | 131.00315 | 36972 ft | 510 kts | 166° |
| 2026-05-07 17:58 | -12.73128 | 131.02619 | 36968 ft | 510 kts | 166° |
| 2026-05-07 17:58 | -12.79866 | 131.04920 | 36969 ft | 510 kts | 166° |
| 2026-05-07 17:59 | -12.86602 | 131.07221 | 36970 ft | 510 kts | 166° |
| 2026-05-07 17:59 | -12.93346 | 131.09526 | 36973 ft | 510 kts | 166° |
| 2026-05-07 18:00 | -13.00038 | 131.11814 | 36976 ft | 510 kts | 166° |
| 2026-05-07 18:00 | -13.06775 | 131.14120 | 36977 ft | 510 kts | 166° |
| 2026-05-07 18:01 | -13.13505 | 131.16423 | 36980 ft | 510 kts | 166° |
| 2026-05-07 18:01 | -13.20233 | 131.18728 | 36975 ft | 510 kts | 166° |
| 2026-05-07 18:02 | -13.30335 | 131.22192 | 36987 ft | 510 kts | 167° |
| 2026-05-07 18:03 | -13.37067 | 131.24501 | 36988 ft | 510 kts | 167° |
| 2026-05-07 18:03 | -13.43795 | 131.26810 | 36984 ft | 509 kts | 167° |
| 2026-05-07 18:04 | -13.50520 | 131.29120 | 36988 ft | 509 kts | 167° |
| 2026-05-07 18:04 | -13.57193 | 131.31414 | 36998 ft | 509 kts | 167° |
| 2026-05-07 18:05 | -13.63911 | 131.33724 | 36995 ft | 509 kts | 167° |
| 2026-05-07 18:05 | -13.70633 | 131.36036 | 36990 ft | 509 kts | 167° |
| 2026-05-07 18:06 | -13.77343 | 131.38346 | 36997 ft | 508 kts | 167° |
| 2026-05-07 18:06 | -13.84057 | 131.40659 | 37000 ft | 509 kts | 167° |
| 2026-05-07 18:07 | -13.90781 | 131.42977 | 36998 ft | 509 kts | 167° |
| 2026-05-07 18:07 | -13.97501 | 131.45295 | 36996 ft | 509 kts | 167° |
| 2026-05-07 18:08 | -14.04230 | 131.47618 | 37017 ft | 510 kts | 168° |
| 2026-05-07 18:08 | -14.10962 | 131.49943 | 37006 ft | 510 kts | 168° |
| 2026-05-07 18:09 | -14.17692 | 131.52268 | 37007 ft | 510 kts | 168° |
| 2026-05-07 18:09 | -14.24382 | 131.54582 | 37013 ft | 510 kts | 168° |
| 2026-05-07 18:10 | -14.31108 | 131.56909 | 37019 ft | 509 kts | 168° |
| 2026-05-07 18:10 | -14.37827 | 131.59236 | 37006 ft | 510 kts | 168° |
| 2026-05-07 18:11 | -14.44556 | 131.61567 | 37019 ft | 509 kts | 168° |
| 2026-05-07 18:11 | -14.51270 | 131.63894 | 37012 ft | 509 kts | 168° |
| 2026-05-07 18:12 | -14.57984 | 131.66223 | 37019 ft | 509 kts | 168° |
| 2026-05-07 18:12 | -14.64699 | 131.68554 | 37009 ft | 508 kts | 168° |
| 2026-05-07 18:13 | -14.71403 | 131.70883 | 37028 ft | 508 kts | 168° |
| 2026-05-07 18:13 | -14.78069 | 131.73200 | 37043 ft | 508 kts | 168° |
| 2026-05-07 18:14 | -14.84774 | 131.75531 | 37013 ft | 508 kts | 168° |
| 2026-05-07 18:14 | -14.91477 | 131.77864 | 37015 ft | 508 kts | 168° |
| 2026-05-07 18:15 | -14.98173 | 131.80196 | 37024 ft | 508 kts | 168° |
| 2026-05-07 18:15 | -15.04870 | 131.82530 | 37038 ft | 508 kts | 168° |
| 2026-05-07 18:16 | -15.11575 | 131.84867 | 37032 ft | 508 kts | 168° |
| 2026-05-07 18:16 | -15.18245 | 131.87195 | 37026 ft | 509 kts | 168° |
| 2026-05-07 18:17 | -15.24949 | 131.89536 | 37032 ft | 509 kts | 168° |
| 2026-05-07 18:17 | -15.31661 | 131.91882 | 37040 ft | 509 kts | 168° |
| 2026-05-07 18:18 | -15.38377 | 131.94230 | 37034 ft | 509 kts | 168° |
| 2026-05-07 18:18 | -15.45093 | 131.96581 | 37036 ft | 509 kts | 168° |
| 2026-05-07 18:19 | -15.51814 | 131.98927 | 37052 ft | 509 kts | 169° |
| 2026-05-07 18:19 | -15.58552 | 132.01189 | 37040 ft | 509 kts | 170° |
| 2026-05-07 18:20 | -15.65312 | 132.03425 | 37039 ft | 509 kts | 170° |
| 2026-05-07 18:20 | -15.72053 | 132.05668 | 37046 ft | 509 kts | 169° |
| 2026-05-07 18:21 | -15.78804 | 132.07926 | 37048 ft | 509 kts | 170° |
| 2026-05-07 18:21 | -15.85550 | 132.10188 | 37047 ft | 509 kts | 170° |
| 2026-05-07 18:22 | -15.92259 | 132.12438 | 37047 ft | 509 kts | 170° |
| 2026-05-07 18:22 | -15.98999 | 132.14699 | 37046 ft | 509 kts | 170° |
| 2026-05-07 18:23 | -16.05749 | 132.16965 | 37057 ft | 509 kts | 170° |
| 2026-05-07 18:23 | -16.12498 | 132.19232 | 37055 ft | 509 kts | 170° |
| 2026-05-07 18:24 | -16.19246 | 132.21501 | 37055 ft | 509 kts | 170° |
| 2026-05-07 18:24 | -16.25984 | 132.23769 | 37058 ft | 509 kts | 170° |
| 2026-05-07 18:25 | -16.32733 | 132.26041 | 37061 ft | 509 kts | 170° |
| 2026-05-07 18:25 | -16.39483 | 132.28315 | 37057 ft | 510 kts | 170° |
| 2026-05-07 18:26 | -16.46231 | 132.30590 | 37057 ft | 510 kts | 170° |
| 2026-05-07 18:26 | -16.52939 | 132.32854 | 37062 ft | 510 kts | 170° |
| 2026-05-07 18:27 | -16.59695 | 132.35135 | 37067 ft | 510 kts | 170° |
| 2026-05-07 18:27 | -16.66458 | 132.37421 | 37063 ft | 510 kts | 170° |
| 2026-05-07 18:28 | -16.73220 | 132.39708 | 37085 ft | 510 kts | 171° |
| 2026-05-07 18:28 | -16.79981 | 132.41996 | 37071 ft | 511 kts | 171° |
| 2026-05-07 18:29 | -16.85608 | 132.43901 | 37073 ft | 511 kts | 171° |
| 2026-05-07 18:29 | -16.92368 | 132.46193 | 37073 ft | 511 kts | 171° |
| 2026-05-07 18:30 | -16.99143 | 132.48491 | 37089 ft | 512 kts | 171° |
| 2026-05-07 18:30 | -17.05922 | 132.50792 | 37081 ft | 512 kts | 171° |
| 2026-05-07 18:31 | -17.12708 | 132.53097 | 37080 ft | 512 kts | 171° |
| 2026-05-07 18:31 | -17.19447 | 132.55428 | 37108 ft | 513 kts | 170° |
| 2026-05-07 18:32 | -17.26216 | 132.57815 | 37089 ft | 514 kts | 171° |
| 2026-05-07 18:32 | -17.33005 | 132.60213 | 37081 ft | 514 kts | 171° |
| 2026-05-07 18:33 | -17.39787 | 132.62602 | 37075 ft | 514 kts | 171° |
| 2026-05-07 18:33 | -17.46575 | 132.64991 | 37092 ft | 515 kts | 171° |
| 2026-05-07 18:34 | -17.53380 | 132.67387 | 37086 ft | 515 kts | 171° |
| 2026-05-07 18:34 | -17.60176 | 132.69782 | 37085 ft | 515 kts | 171° |
| 2026-05-07 18:35 | -17.66980 | 132.72183 | 37111 ft | 515 kts | 171° |
| 2026-05-07 18:35 | -17.73784 | 132.74585 | 37091 ft | 516 kts | 171° |
| 2026-05-07 18:36 | -17.80543 | 132.76973 | 37092 ft | 516 kts | 171° |
| 2026-05-07 18:36 | -17.87340 | 132.79377 | 37088 ft | 516 kts | 171° |
| 2026-05-07 18:37 | -17.94140 | 132.81784 | 37092 ft | 516 kts | 171° |
| 2026-05-07 18:37 | -18.00954 | 132.84197 | 37101 ft | 516 kts | 171° |
| 2026-05-07 18:38 | -18.07762 | 132.86611 | 37102 ft | 516 kts | 171° |
| 2026-05-07 18:38 | -18.14578 | 132.89029 | 37115 ft | 516 kts | 171° |
| 2026-05-07 18:39 | -18.21386 | 132.91447 | 37105 ft | 517 kts | 171° |
| 2026-05-07 18:39 | -18.28200 | 132.93868 | 37105 ft | 517 kts | 171° |
| 2026-05-07 18:40 | -18.35021 | 132.96295 | 37106 ft | 517 kts | 171° |
| 2026-05-07 18:40 | -18.41853 | 132.98725 | 37107 ft | 518 kts | 171° |
| 2026-05-07 18:41 | -18.48635 | 133.01142 | 37114 ft | 518 kts | 171° |
| 2026-05-07 18:41 | -18.55472 | 133.03580 | 37103 ft | 518 kts | 171° |
| 2026-05-07 18:42 | -18.62307 | 133.06020 | 37112 ft | 519 kts | 171° |
| 2026-05-07 18:42 | -18.69150 | 133.08464 | 37114 ft | 519 kts | 171° |
| 2026-05-07 18:43 | -18.75995 | 133.10911 | 37118 ft | 519 kts | 171° |
| 2026-05-07 18:43 | -18.82846 | 133.13362 | 37139 ft | 520 kts | 171° |
| 2026-05-07 18:44 | -18.89708 | 133.15818 | 37121 ft | 521 kts | 171° |
| 2026-05-07 18:44 | -18.96533 | 133.18265 | 37122 ft | 521 kts | 171° |
| 2026-05-07 18:45 | -19.03403 | 133.20730 | 37122 ft | 521 kts | 171° |
| 2026-05-07 18:45 | -19.10279 | 133.23198 | 37132 ft | 522 kts | 171° |
| 2026-05-07 18:46 | -19.17179 | 133.25677 | 37129 ft | 523 kts | 171° |
| 2026-05-07 18:46 | -19.24088 | 133.28163 | 37130 ft | 524 kts | 171° |
| 2026-05-07 18:47 | -19.30959 | 133.30636 | 37139 ft | 525 kts | 171° |
| 2026-05-07 18:47 | -19.37887 | 133.33132 | 37139 ft | 526 kts | 170° |
| 2026-05-07 18:48 | -19.44823 | 133.35634 | 37148 ft | 527 kts | 170° |
| 2026-05-07 18:48 | -19.51766 | 133.38140 | 37144 ft | 528 kts | 170° |
| 2026-05-07 18:49 | -19.58740 | 133.40659 | 37158 ft | 529 kts | 170° |
| 2026-05-07 18:49 | -19.65716 | 133.43182 | 37137 ft | 530 kts | 170° |
| 2026-05-07 18:50 | -19.72699 | 133.45710 | 37184 ft | 531 kts | 170° |
| 2026-05-07 18:50 | -19.79707 | 133.48248 | 37163 ft | 532 kts | 170° |
| 2026-05-07 18:51 | -19.86728 | 133.50795 | 37158 ft | 533 kts | 170° |
| 2026-05-07 18:51 | -19.93696 | 133.53325 | 37185 ft | 533 kts | 170° |
| 2026-05-07 18:52 | -20.00727 | 133.55879 | 37166 ft | 534 kts | 170° |
| 2026-05-07 18:52 | -20.07758 | 133.58436 | 37164 ft | 534 kts | 169° |
| 2026-05-07 18:53 | -20.14789 | 133.60996 | 37207 ft | 534 kts | 169° |
| 2026-05-07 18:53 | -20.21827 | 133.63560 | 37152 ft | 535 kts | 169° |
| 2026-05-07 18:54 | -20.28865 | 133.66127 | 37174 ft | 535 kts | 169° |
| 2026-05-07 18:54 | -20.35914 | 133.68700 | 37180 ft | 535 kts | 169° |
| 2026-05-07 18:55 | -20.42957 | 133.71273 | 37184 ft | 536 kts | 169° |
| 2026-05-07 18:55 | -20.50008 | 133.73852 | 37186 ft | 536 kts | 169° |
| 2026-05-07 18:56 | -20.57072 | 133.76439 | 37177 ft | 536 kts | 169° |
| 2026-05-07 18:56 | -20.64139 | 133.79029 | 37188 ft | 537 kts | 169° |
| 2026-05-07 18:57 | -20.71160 | 133.81605 | 37183 ft | 537 kts | 169° |
| 2026-05-07 18:57 | -20.78222 | 133.84198 | 37179 ft | 537 kts | 169° |
| 2026-05-07 18:58 | -20.85288 | 133.86795 | 37195 ft | 537 kts | 169° |
| 2026-05-07 18:58 | -20.92355 | 133.89395 | 37194 ft | 537 kts | 169° |
| 2026-05-07 18:59 | -20.99424 | 133.91999 | 37196 ft | 537 kts | 169° |
| 2026-05-07 18:59 | -21.06498 | 133.94607 | 37202 ft | 538 kts | 169° |
| 2026-05-07 19:00 | -21.13575 | 133.97219 | 37203 ft | 538 kts | 169° |
| 2026-05-07 19:00 | -21.20664 | 133.99838 | 37212 ft | 538 kts | 169° |
| 2026-05-07 19:01 | -21.27741 | 134.02455 | 37219 ft | 539 kts | 169° |
| 2026-05-07 19:01 | -21.34783 | 134.05063 | 37209 ft | 538 kts | 169° |
| 2026-05-07 19:02 | -21.41780 | 134.08075 | 37224 ft | 544 kts | 164° |
| 2026-05-07 19:02 | -21.48719 | 134.11393 | 37229 ft | 546 kts | 163° |
| 2026-05-07 19:03 | -21.55653 | 134.14728 | 37236 ft | 546 kts | 163° |
| 2026-05-07 19:03 | -21.62601 | 134.18034 | 37237 ft | 545 kts | 163° |
| 2026-05-07 19:04 | -21.69551 | 134.21323 | 37233 ft | 546 kts | 163° |
| 2026-05-07 19:04 | -21.76456 | 134.24592 | 37236 ft | 546 kts | 163° |
| 2026-05-07 19:05 | -21.83418 | 134.27894 | 37240 ft | 546 kts | 163° |
| 2026-05-07 19:05 | -21.90388 | 134.31205 | 37255 ft | 547 kts | 163° |
| 2026-05-07 19:06 | -21.97351 | 134.34517 | 37247 ft | 547 kts | 163° |
| 2026-05-07 19:06 | -22.07808 | 134.39499 | 37279 ft | 547 kts | 163° |
| 2026-05-07 19:07 | -22.14774 | 134.42821 | 37241 ft | 547 kts | 163° |
| 2026-05-07 19:07 | -22.21741 | 134.46147 | 37258 ft | 547 kts | 163° |
| 2026-05-07 19:08 | -22.28668 | 134.49457 | 37298 ft | 549 kts | 163° |
| 2026-05-07 19:08 | -22.32173 | 134.51132 | 37446 ft | 552 kts | 163° |
| 2026-05-07 19:08 | -22.35684 | 134.52811 | 37757 ft | 551 kts | 163° |
| 2026-05-07 19:09 | -22.39185 | 134.54490 | 38106 ft | 549 kts | 163° |
| 2026-05-07 19:09 | -22.42671 | 134.56163 | 38456 ft | 547 kts | 163° |
| 2026-05-07 19:09 | -22.46152 | 134.57833 | 38827 ft | 546 kts | 163° |
| 2026-05-07 19:09 | -22.49630 | 134.59502 | 39071 ft | 545 kts | 163° |
| 2026-05-07 19:10 | -22.53107 | 134.61169 | 39200 ft | 548 kts | 163° |
| 2026-05-07 19:10 | -22.56603 | 134.62845 | 39230 ft | 550 kts | 163° |
| 2026-05-07 19:10 | -22.63590 | 134.66202 | 39262 ft | 547 kts | 163° |
| 2026-05-07 19:11 | -22.70527 | 134.69544 | 39284 ft | 544 kts | 163° |
| 2026-05-07 19:11 | -22.77428 | 134.72869 | 39281 ft | 542 kts | 163° |
| 2026-05-07 19:12 | -22.83154 | 134.75629 | 39287 ft | 541 kts | 163° |
| 2026-05-07 19:12 | -22.90035 | 134.78948 | 39294 ft | 541 kts | 163° |
| 2026-05-07 19:13 | -22.96921 | 134.82273 | 39295 ft | 543 kts | 163° |
| 2026-05-07 19:13 | -23.03833 | 134.85616 | 39318 ft | 544 kts | 163° |
| 2026-05-07 19:14 | -23.10780 | 134.88979 | 39310 ft | 547 kts | 163° |
| 2026-05-07 19:14 | -23.17683 | 134.92328 | 39308 ft | 547 kts | 163° |
| 2026-05-07 19:15 | -23.24645 | 134.95708 | 39333 ft | 547 kts | 163° |
| 2026-05-07 19:15 | -23.31611 | 134.99092 | 39330 ft | 548 kts | 163° |
| 2026-05-07 19:16 | -23.38566 | 135.02477 | 39305 ft | 548 kts | 163° |
| 2026-05-07 19:16 | -23.45522 | 135.05865 | 39310 ft | 547 kts | 163° |
| 2026-05-07 19:17 | -23.52479 | 135.09257 | 39339 ft | 547 kts | 163° |
| 2026-05-07 19:17 | -23.59427 | 135.12649 | 39320 ft | 547 kts | 163° |
| 2026-05-07 19:18 | -23.66363 | 135.16039 | 39326 ft | 546 kts | 163° |
| 2026-05-07 19:18 | -23.73296 | 135.19434 | 39334 ft | 546 kts | 163° |
| 2026-05-07 19:19 | -23.80181 | 135.22805 | 39332 ft | 546 kts | 162° |
| 2026-05-07 19:19 | -23.87116 | 135.26206 | 39328 ft | 545 kts | 162° |
| 2026-05-07 19:20 | -23.94031 | 135.29604 | 39329 ft | 545 kts | 162° |
| 2026-05-07 19:20 | -24.00952 | 135.33006 | 39337 ft | 545 kts | 162° |
| 2026-05-07 19:21 | -24.07867 | 135.36458 | 39342 ft | 546 kts | 160° |
| 2026-05-07 19:21 | -24.14615 | 135.40200 | 39341 ft | 548 kts | 158° |
| 2026-05-07 19:22 | -24.21378 | 135.44076 | 39340 ft | 548 kts | 159° |
| 2026-05-07 19:22 | -24.28141 | 135.47908 | 39341 ft | 547 kts | 159° |
| 2026-05-07 19:23 | -24.34927 | 135.51707 | 39352 ft | 547 kts | 159° |
| 2026-05-07 19:23 | -24.41706 | 135.55493 | 39342 ft | 547 kts | 159° |
| 2026-05-07 19:24 | -24.48484 | 135.59287 | 39350 ft | 546 kts | 159° |
| 2026-05-07 19:24 | -24.55256 | 135.63087 | 39347 ft | 546 kts | 159° |
| 2026-05-07 19:25 | -24.61979 | 135.66865 | 39364 ft | 546 kts | 159° |
| 2026-05-07 19:25 | -24.68749 | 135.70674 | 39349 ft | 546 kts | 159° |
| 2026-05-07 19:26 | -24.75509 | 135.74482 | 39356 ft | 546 kts | 159° |
| 2026-05-07 19:26 | -24.82266 | 135.78292 | 39351 ft | 545 kts | 159° |
| 2026-05-07 19:27 | -24.89028 | 135.82110 | 39385 ft | 545 kts | 158° |
| 2026-05-07 19:27 | -24.95774 | 135.85924 | 39369 ft | 545 kts | 158° |
| 2026-05-07 19:28 | -25.02472 | 135.89715 | 39359 ft | 544 kts | 158° |
| 2026-05-07 19:28 | -25.09216 | 135.93538 | 39364 ft | 544 kts | 158° |
| 2026-05-07 19:29 | -25.15947 | 135.97358 | 39366 ft | 544 kts | 158° |
| 2026-05-07 19:29 | -25.22681 | 136.01183 | 39365 ft | 543 kts | 158° |
| 2026-05-07 19:30 | -25.29396 | 136.05003 | 39366 ft | 542 kts | 158° |
| 2026-05-07 19:30 | -25.36108 | 136.08827 | 39368 ft | 542 kts | 158° |
| 2026-05-07 19:31 | -25.42772 | 136.12627 | 39370 ft | 542 kts | 158° |
| 2026-05-07 19:31 | -25.49471 | 136.16452 | 39368 ft | 541 kts | 158° |
| 2026-05-07 19:32 | -25.56171 | 136.20282 | 39371 ft | 542 kts | 158° |
| 2026-05-07 19:32 | -25.62868 | 136.24115 | 39378 ft | 542 kts | 158° |
| 2026-05-07 19:33 | -25.69568 | 136.27956 | 39370 ft | 543 kts | 158° |
| 2026-05-07 19:33 | -25.76277 | 136.31806 | 39392 ft | 543 kts | 158° |
| 2026-05-07 19:34 | -25.82993 | 136.35666 | 39381 ft | 543 kts | 158° |
| 2026-05-07 19:34 | -25.89709 | 136.39530 | 39379 ft | 543 kts | 158° |
| 2026-05-07 19:35 | -25.96383 | 136.43376 | 39382 ft | 543 kts | 158° |
| 2026-05-07 19:35 | -26.03086 | 136.47243 | 39403 ft | 542 kts | 157° |
| 2026-05-07 19:36 | -26.09785 | 136.51112 | 39390 ft | 542 kts | 157° |
| 2026-05-07 19:36 | -26.16469 | 136.54979 | 39382 ft | 541 kts | 157° |
| 2026-05-07 19:37 | -26.23141 | 136.58843 | 39383 ft | 540 kts | 157° |
| 2026-05-07 19:37 | -26.29769 | 136.62686 | 39385 ft | 540 kts | 157° |
| 2026-05-07 19:38 | -26.36427 | 136.66552 | 39399 ft | 539 kts | 157° |
| 2026-05-07 19:38 | -26.43071 | 136.70415 | 39387 ft | 538 kts | 157° |
| 2026-05-07 19:39 | -26.49710 | 136.74280 | 39397 ft | 538 kts | 157° |
| 2026-05-07 19:39 | -26.56341 | 136.78145 | 39392 ft | 537 kts | 157° |
| 2026-05-07 19:40 | -26.62960 | 136.82008 | 39405 ft | 537 kts | 157° |
| 2026-05-07 19:40 | -26.69579 | 136.85877 | 39398 ft | 536 kts | 157° |
| 2026-05-07 19:41 | -26.76195 | 136.89750 | 39394 ft | 536 kts | 157° |
| 2026-05-07 19:41 | -26.82757 | 136.93595 | 39397 ft | 535 kts | 156° |
| 2026-05-07 19:42 | -26.89359 | 136.97468 | 39413 ft | 535 kts | 156° |
| 2026-05-07 19:42 | -26.95948 | 137.01340 | 39398 ft | 534 kts | 156° |
| 2026-05-07 19:43 | -27.02523 | 137.05209 | 39404 ft | 533 kts | 156° |
| 2026-05-07 19:43 | -27.09044 | 137.09050 | 39404 ft | 533 kts | 156° |
| 2026-05-07 19:44 | -27.15643 | 137.12943 | 39406 ft | 532 kts | 156° |
| 2026-05-07 19:44 | -27.22157 | 137.16791 | 39418 ft | 532 kts | 156° |
| 2026-05-07 19:45 | -27.28709 | 137.20667 | 39409 ft | 531 kts | 156° |
| 2026-05-07 19:45 | -27.35248 | 137.24540 | 39407 ft | 531 kts | 156° |
| 2026-05-07 19:46 | -27.41775 | 137.28412 | 39409 ft | 530 kts | 156° |
| 2026-05-07 19:46 | -27.48296 | 137.32285 | 39418 ft | 529 kts | 156° |
| 2026-05-07 19:47 | -27.54752 | 137.36297 | 39415 ft | 530 kts | 153° |
| 2026-05-07 19:47 | -27.61027 | 137.40588 | 39415 ft | 530 kts | 152° |
| 2026-05-07 19:48 | -27.67323 | 137.44935 | 39418 ft | 530 kts | 152° |
| 2026-05-07 19:48 | -27.73641 | 137.49236 | 39421 ft | 530 kts | 152° |
| 2026-05-07 19:49 | -27.79969 | 137.53510 | 39425 ft | 529 kts | 152° |
| 2026-05-07 19:49 | -27.86292 | 137.57783 | 39417 ft | 528 kts | 152° |
| 2026-05-07 19:50 | -27.92597 | 137.62054 | 39422 ft | 528 kts | 152° |
| 2026-05-07 19:50 | -27.98892 | 137.66326 | 39423 ft | 527 kts | 152° |
| 2026-05-07 19:51 | -28.05180 | 137.70600 | 39440 ft | 527 kts | 152° |
| 2026-05-07 19:51 | -28.11460 | 137.74874 | 39426 ft | 527 kts | 152° |
| 2026-05-07 19:52 | -28.17696 | 137.79125 | 39423 ft | 526 kts | 152° |
| 2026-05-07 19:52 | -28.23965 | 137.83404 | 39425 ft | 526 kts | 152° |
| 2026-05-07 19:53 | -28.30233 | 137.87687 | 39429 ft | 525 kts | 152° |
| 2026-05-07 19:53 | -28.36494 | 137.91972 | 39429 ft | 525 kts | 152° |
| 2026-05-07 19:54 | -28.42756 | 137.96264 | 39430 ft | 526 kts | 152° |
| 2026-05-07 19:54 | -28.49026 | 138.00567 | 39430 ft | 526 kts | 152° |
| 2026-05-07 19:55 | -28.55290 | 138.04873 | 39430 ft | 527 kts | 152° |
| 2026-05-07 19:55 | -28.61568 | 138.09193 | 39433 ft | 527 kts | 152° |
| 2026-05-07 19:56 | -28.67840 | 138.13517 | 39440 ft | 527 kts | 152° |
| 2026-05-07 19:56 | -28.74104 | 138.17840 | 39431 ft | 526 kts | 152° |
| 2026-05-07 19:57 | -28.80322 | 138.22138 | 39437 ft | 525 kts | 152° |
| 2026-05-07 19:57 | -28.86558 | 138.26455 | 39439 ft | 524 kts | 152° |
| 2026-05-07 19:58 | -28.92781 | 138.30768 | 39442 ft | 523 kts | 152° |
| 2026-05-07 19:58 | -28.98999 | 138.35085 | 39445 ft | 522 kts | 152° |
| 2026-05-07 19:59 | -29.05196 | 138.39392 | 39440 ft | 521 kts | 152° |
| 2026-05-07 19:59 | -29.10336 | 138.42970 | 39441 ft | 520 kts | 152° |
| 2026-05-07 20:00 | -29.16518 | 138.47279 | 39444 ft | 519 kts | 152° |
| 2026-05-07 20:00 | -29.22688 | 138.51586 | 39452 ft | 519 kts | 152° |
| 2026-05-07 20:01 | -29.28850 | 138.55893 | 39444 ft | 518 kts | 152° |
| 2026-05-07 20:01 | -29.34962 | 138.60293 | 39445 ft | 518 kts | 150° |
| 2026-05-07 20:02 | -29.40958 | 138.64802 | 39440 ft | 518 kts | 149° |
| 2026-05-07 20:02 | -29.46971 | 138.69342 | 39441 ft | 517 kts | 149° |
| 2026-05-07 20:03 | -29.53000 | 138.73868 | 39462 ft | 517 kts | 149° |
| 2026-05-07 20:03 | -29.59032 | 138.78385 | 39447 ft | 516 kts | 149° |
| 2026-05-07 20:04 | -29.65045 | 138.82893 | 39446 ft | 515 kts | 149° |
| 2026-05-07 20:04 | -29.71045 | 138.87399 | 39450 ft | 515 kts | 149° |
| 2026-05-07 20:05 | -29.77006 | 138.91883 | 39450 ft | 514 kts | 149° |
| 2026-05-07 20:05 | -29.82992 | 138.96393 | 39466 ft | 514 kts | 149° |
| 2026-05-07 20:06 | -29.88978 | 139.00910 | 39453 ft | 514 kts | 149° |
| 2026-05-07 20:06 | -29.94958 | 139.05428 | 39451 ft | 513 kts | 149° |
| 2026-05-07 20:07 | -30.00930 | 139.09948 | 39454 ft | 513 kts | 149° |
| 2026-05-07 20:07 | -30.06896 | 139.14469 | 39452 ft | 512 kts | 149° |
| 2026-05-07 20:08 | -30.12855 | 139.18991 | 39458 ft | 512 kts | 149° |
| 2026-05-07 20:08 | -30.18768 | 139.23485 | 39458 ft | 512 kts | 149° |
| 2026-05-07 20:09 | -30.24716 | 139.28013 | 39456 ft | 511 kts | 149° |
| 2026-05-07 20:10 | -30.33621 | 139.34803 | 39461 ft | 511 kts | 149° |
| 2026-05-07 20:10 | -30.39559 | 139.39339 | 39460 ft | 511 kts | 149° |
| 2026-05-07 20:11 | -30.45492 | 139.43879 | 39476 ft | 510 kts | 149° |
| 2026-05-07 20:11 | -30.51417 | 139.48419 | 39462 ft | 510 kts | 149° |
| 2026-05-07 20:12 | -30.57329 | 139.52956 | 39463 ft | 509 kts | 149° |
| 2026-05-07 20:12 | -30.63232 | 139.57493 | 39463 ft | 508 kts | 149° |
| 2026-05-07 20:13 | -30.69129 | 139.62031 | 39458 ft | 508 kts | 149° |
| 2026-05-07 20:13 | -30.74988 | 139.66547 | 39473 ft | 508 kts | 149° |
| 2026-05-07 20:14 | -30.80874 | 139.71091 | 39458 ft | 507 kts | 149° |
| 2026-05-07 20:14 | -30.86745 | 139.75630 | 39468 ft | 506 kts | 149° |
| 2026-05-07 20:15 | -30.92606 | 139.80167 | 39452 ft | 506 kts | 149° |
| 2026-05-07 20:15 | -30.98459 | 139.84706 | 39452 ft | 505 kts | 149° |
| 2026-05-07 20:16 | -31.04314 | 139.89252 | 39478 ft | 505 kts | 149° |
| 2026-05-07 20:16 | -31.10126 | 139.93773 | 39455 ft | 505 kts | 149° |
| 2026-05-07 20:17 | -31.15962 | 139.98319 | 39461 ft | 504 kts | 149° |
| 2026-05-07 20:17 | -31.21796 | 140.02870 | 39464 ft | 503 kts | 149° |
| 2026-05-07 20:18 | -31.27614 | 140.07416 | 39465 ft | 503 kts | 149° |
| 2026-05-07 20:18 | -31.33426 | 140.11963 | 39461 ft | 503 kts | 149° |
| 2026-05-07 20:19 | -31.39237 | 140.16516 | 39457 ft | 503 kts | 149° |
| 2026-05-07 20:19 | -31.45044 | 140.21073 | 39463 ft | 503 kts | 149° |
| 2026-05-07 20:20 | -31.50857 | 140.25643 | 39456 ft | 503 kts | 149° |
| 2026-05-07 20:20 | -31.56630 | 140.30187 | 39460 ft | 503 kts | 149° |
| 2026-05-07 20:21 | -31.62441 | 140.34769 | 39465 ft | 503 kts | 149° |
| 2026-05-07 20:21 | -31.68252 | 140.39357 | 39463 ft | 503 kts | 148° |
| 2026-05-07 20:22 | -31.74058 | 140.43949 | 39461 ft | 503 kts | 148° |
| 2026-05-07 20:22 | -31.79860 | 140.48544 | 39458 ft | 502 kts | 148° |
| 2026-05-07 20:23 | -31.85642 | 140.53131 | 39455 ft | 501 kts | 148° |
| 2026-05-07 20:23 | -31.91420 | 140.57722 | 39456 ft | 501 kts | 148° |
| 2026-05-07 20:24 | -31.97193 | 140.62315 | 39458 ft | 500 kts | 148° |
| 2026-05-07 20:24 | -32.02957 | 140.66909 | 39457 ft | 500 kts | 148° |
| 2026-05-07 20:25 | -32.08678 | 140.71475 | 39451 ft | 500 kts | 148° |
| 2026-05-07 20:25 | -32.14433 | 140.76076 | 39454 ft | 499 kts | 148° |
| 2026-05-07 20:26 | -32.20183 | 140.80679 | 39446 ft | 499 kts | 148° |
| 2026-05-07 20:26 | -32.25932 | 140.85289 | 39457 ft | 499 kts | 148° |
| 2026-05-07 20:27 | -32.31675 | 140.89903 | 39454 ft | 499 kts | 148° |
| 2026-05-07 20:27 | -32.37427 | 140.94530 | 39446 ft | 499 kts | 148° |
| 2026-05-07 20:28 | -32.43173 | 140.99160 | 39448 ft | 499 kts | 148° |
| 2026-05-07 20:28 | -32.48914 | 141.03796 | 39446 ft | 499 kts | 147° |
| 2026-05-07 20:29 | -32.54577 | 141.08567 | 39451 ft | 500 kts | 146° |
| 2026-05-07 20:29 | -32.60195 | 141.13421 | 39448 ft | 499 kts | 146° |
| 2026-05-07 20:30 | -32.65812 | 141.18269 | 39442 ft | 499 kts | 146° |
| 2026-05-07 20:30 | -32.71406 | 141.23079 | 39444 ft | 499 kts | 146° |
| 2026-05-07 20:31 | -32.77037 | 141.27917 | 39438 ft | 499 kts | 146° |
| 2026-05-07 20:31 | -32.82660 | 141.32757 | 39433 ft | 499 kts | 146° |
| 2026-05-07 20:32 | -32.88283 | 141.37605 | 39443 ft | 499 kts | 146° |
| 2026-05-07 20:32 | -32.93901 | 141.42457 | 39422 ft | 499 kts | 146° |
| 2026-05-07 20:33 | -32.99506 | 141.47306 | 39434 ft | 498 kts | 146° |
| 2026-05-07 20:33 | -33.05112 | 141.52164 | 39423 ft | 498 kts | 146° |
| 2026-05-07 20:34 | -33.10707 | 141.57020 | 39419 ft | 497 kts | 146° |
| 2026-05-07 20:34 | -33.16301 | 141.61883 | 39436 ft | 497 kts | 146° |
| 2026-05-07 20:35 | -33.21888 | 141.66748 | 39421 ft | 497 kts | 146° |
| 2026-05-07 20:35 | -33.27463 | 141.71610 | 39428 ft | 496 kts | 146° |
| 2026-05-07 20:36 | -33.33042 | 141.76484 | 39419 ft | 496 kts | 146° |
| 2026-05-07 20:36 | -33.38578 | 141.81327 | 39424 ft | 496 kts | 146° |
| 2026-05-07 20:37 | -33.44140 | 141.86202 | 39420 ft | 495 kts | 146° |
| 2026-05-07 20:37 | -33.49699 | 141.91081 | 39418 ft | 495 kts | 146° |
| 2026-05-07 20:38 | -33.55247 | 141.95959 | 39416 ft | 494 kts | 146° |
| 2026-05-07 20:38 | -33.60791 | 142.00842 | 39411 ft | 494 kts | 146° |
| 2026-05-07 20:39 | -33.66328 | 142.05726 | 39417 ft | 493 kts | 146° |
| 2026-05-07 20:39 | -33.71814 | 142.10574 | 39407 ft | 493 kts | 146° |
| 2026-05-07 20:40 | -33.77333 | 142.15457 | 39417 ft | 492 kts | 146° |
| 2026-05-07 20:40 | -33.82827 | 142.20328 | 39408 ft | 490 kts | 146° |
| 2026-05-07 20:41 | -33.88302 | 142.25189 | 39401 ft | 488 kts | 146° |
| 2026-05-07 20:41 | -33.93752 | 142.30036 | 39412 ft | 486 kts | 147° |
| 2026-05-07 20:42 | -33.99190 | 142.34880 | 39398 ft | 485 kts | 147° |
| 2026-05-07 20:42 | -34.04610 | 142.39715 | 39397 ft | 484 kts | 146° |
| 2026-05-07 20:43 | -34.09981 | 142.44515 | 39407 ft | 483 kts | 147° |
| 2026-05-07 20:43 | -34.15368 | 142.49337 | 39394 ft | 481 kts | 147° |
| 2026-05-07 20:44 | -34.20746 | 142.54159 | 39405 ft | 480 kts | 147° |
| 2026-05-07 20:44 | -34.26107 | 142.58973 | 39387 ft | 480 kts | 147° |
| 2026-05-07 20:45 | -34.31456 | 142.63785 | 39387 ft | 479 kts | 147° |
| 2026-05-07 20:45 | -34.36801 | 142.68600 | 39386 ft | 479 kts | 147° |
| 2026-05-07 20:46 | -34.42146 | 142.73423 | 39383 ft | 479 kts | 147° |
| 2026-05-07 20:46 | -34.46590 | 142.77439 | 39390 ft | 479 kts | 147° |
| 2026-05-07 20:47 | -34.51937 | 142.82279 | 39379 ft | 480 kts | 147° |
| 2026-05-07 20:47 | -34.57298 | 142.87139 | 39378 ft | 480 kts | 147° |
| 2026-05-07 20:48 | -34.62615 | 142.91968 | 39383 ft | 481 kts | 147° |
| 2026-05-07 20:48 | -34.67976 | 142.96845 | 39387 ft | 481 kts | 147° |
| 2026-05-07 20:49 | -34.73331 | 143.01724 | 39383 ft | 481 kts | 147° |
| 2026-05-07 20:49 | -34.78682 | 143.06608 | 39369 ft | 481 kts | 147° |
| 2026-05-07 20:50 | -34.84028 | 143.11496 | 39367 ft | 480 kts | 147° |
| 2026-05-07 20:50 | -34.89367 | 143.16385 | 39367 ft | 480 kts | 147° |
| 2026-05-07 20:51 | -34.94702 | 143.21279 | 39360 ft | 480 kts | 147° |
| 2026-05-07 20:51 | -35.00186 | 143.25882 | 39388 ft | 476 kts | 153° |
| 2026-05-07 20:52 | -35.05796 | 143.30059 | 39359 ft | 475 kts | 153° |
| 2026-05-07 20:52 | -35.11442 | 143.34250 | 39359 ft | 474 kts | 153° |
| 2026-05-07 20:53 | -35.17064 | 143.38471 | 39350 ft | 474 kts | 153° |
| 2026-05-07 20:53 | -35.22671 | 143.42708 | 39352 ft | 473 kts | 153° |
| 2026-05-07 20:54 | -35.28273 | 143.46951 | 39349 ft | 473 kts | 152° |
| 2026-05-07 20:54 | -35.33874 | 143.51199 | 39357 ft | 473 kts | 152° |
| 2026-05-07 20:55 | -35.39469 | 143.55448 | 39343 ft | 473 kts | 152° |
| 2026-05-07 20:55 | -35.45060 | 143.59701 | 39342 ft | 473 kts | 152° |
| 2026-05-07 20:56 | -35.50653 | 143.63963 | 39336 ft | 473 kts | 152° |
| 2026-05-07 20:56 | -35.56243 | 143.68230 | 39339 ft | 472 kts | 152° |
| 2026-05-07 20:57 | -35.61786 | 143.72467 | 39325 ft | 472 kts | 152° |
| 2026-05-07 20:57 | -35.67351 | 143.76730 | 39338 ft | 471 kts | 152° |
| 2026-05-07 20:58 | -35.72883 | 143.80975 | 38589 ft | 469 kts | 152° |
| 2026-05-07 20:58 | -35.75650 | 143.83100 | 37868 ft | 465 kts | 152° |
| 2026-05-07 20:58 | -35.78387 | 143.85204 | 37198 ft | 462 kts | 152° |
| 2026-05-07 20:58 | -35.81096 | 143.87289 | 36666 ft | 456 kts | 152° |
| 2026-05-07 20:59 | -35.83777 | 143.89355 | 36140 ft | 451 kts | 152° |
| 2026-05-07 20:59 | -35.86425 | 143.91398 | 35587 ft | 447 kts | 152° |
| 2026-05-07 20:59 | -35.89021 | 143.93402 | 35053 ft | 444 kts | 152° |
| 2026-05-07 20:59 | -35.91629 | 143.95416 | 34516 ft | 441 kts | 152° |
| 2026-05-07 21:00 | -35.94223 | 143.97422 | 33900 ft | 438 kts | 152° |
| 2026-05-07 21:00 | -35.96791 | 143.99409 | 33344 ft | 434 kts | 153° |
| 2026-05-07 21:00 | -35.99342 | 144.01384 | 32795 ft | 430 kts | 153° |
| 2026-05-07 21:00 | -36.01863 | 144.03339 | 32263 ft | 426 kts | 153° |
| 2026-05-07 21:01 | -36.04359 | 144.05275 | 31739 ft | 422 kts | 153° |
| 2026-05-07 21:01 | -36.06834 | 144.07196 | 31211 ft | 418 kts | 153° |
| 2026-05-07 21:01 | -36.09290 | 144.09103 | 30707 ft | 414 kts | 153° |
| 2026-05-07 21:01 | -36.11722 | 144.10994 | 30156 ft | 411 kts | 153° |
| 2026-05-07 21:02 | -36.14131 | 144.12868 | 29566 ft | 407 kts | 153° |
| 2026-05-07 21:02 | -36.16511 | 144.14721 | 29023 ft | 403 kts | 153° |
| 2026-05-07 21:02 | -36.18870 | 144.16559 | 28505 ft | 399 kts | 153° |
| 2026-05-07 21:02 | -36.21206 | 144.18380 | 27982 ft | 395 kts | 154° |
| 2026-05-07 21:03 | -36.23497 | 144.20167 | 27479 ft | 392 kts | 154° |
| 2026-05-07 21:03 | -36.25797 | 144.21962 | 26974 ft | 389 kts | 154° |
| 2026-05-07 21:03 | -36.28075 | 144.23742 | 26475 ft | 386 kts | 154° |
| 2026-05-07 21:03 | -36.30341 | 144.25513 | 26016 ft | 384 kts | 154° |
| 2026-05-07 21:04 | -36.32598 | 144.27278 | 25513 ft | 382 kts | 154° |
| 2026-05-07 21:04 | -36.34840 | 144.29032 | 25025 ft | 380 kts | 154° |
| 2026-05-07 21:04 | -36.37074 | 144.30781 | 24550 ft | 378 kts | 154° |
| 2026-05-07 21:04 | -36.39295 | 144.32521 | 24056 ft | 378 kts | 154° |
| 2026-05-07 21:05 | -36.41515 | 144.34262 | 23519 ft | 377 kts | 154° |
| 2026-05-07 21:05 | -36.43722 | 144.35993 | 22995 ft | 374 kts | 154° |
| 2026-05-07 21:05 | -36.45917 | 144.37719 | 22507 ft | 372 kts | 154° |
| 2026-05-07 21:05 | -36.48095 | 144.39431 | 22020 ft | 369 kts | 154° |
| 2026-05-07 21:06 | -36.50268 | 144.41141 | 21543 ft | 367 kts | 154° |
| 2026-05-07 21:06 | -36.52420 | 144.42835 | 21079 ft | 365 kts | 154° |
| 2026-05-07 21:06 | -36.54559 | 144.44519 | 20618 ft | 363 kts | 154° |
| 2026-05-07 21:06 | -36.56688 | 144.46197 | 20150 ft | 361 kts | 154° |
| 2026-05-07 21:07 | -36.58783 | 144.47849 | 19690 ft | 360 kts | 154° |
| 2026-05-07 21:07 | -36.60896 | 144.49516 | 19236 ft | 359 kts | 154° |
| 2026-05-07 21:07 | -36.63002 | 144.51180 | 18782 ft | 358 kts | 154° |
| 2026-05-07 21:07 | -36.65107 | 144.52843 | 18272 ft | 358 kts | 154° |
| 2026-05-07 21:08 | -36.67210 | 144.54505 | 17751 ft | 357 kts | 154° |
| 2026-05-07 21:08 | -36.69301 | 144.56160 | 17261 ft | 355 kts | 154° |
| 2026-05-07 21:08 | -36.71384 | 144.57810 | 16790 ft | 353 kts | 154° |
| 2026-05-07 21:08 | -36.73455 | 144.59451 | 16327 ft | 351 kts | 154° |
| 2026-05-07 21:09 | -36.75508 | 144.61079 | 15866 ft | 349 kts | 154° |
| 2026-05-07 21:09 | -36.77524 | 144.62677 | 15419 ft | 347 kts | 154° |
| 2026-05-07 21:09 | -36.79575 | 144.64222 | 14958 ft | 340 kts | 160° |
| 2026-05-07 21:09 | -36.81740 | 144.65308 | 14501 ft | 332 kts | 169° |
| 2026-05-07 21:10 | -36.83965 | 144.65966 | 14048 ft | 326 kts | 175° |
| 2026-05-07 21:10 | -36.86198 | 144.66441 | 13549 ft | 325 kts | 175° |
| 2026-05-07 21:10 | -36.88425 | 144.66924 | 13074 ft | 324 kts | 175° |
| 2026-05-07 21:10 | -36.90635 | 144.67406 | 12628 ft | 322 kts | 175° |
| 2026-05-07 21:11 | -36.92836 | 144.67889 | 12166 ft | 320 kts | 175° |
| 2026-05-07 21:11 | -36.95019 | 144.68369 | 11724 ft | 318 kts | 174° |
| 2026-05-07 21:11 | -36.99316 | 144.69321 | 11190 ft | 303 kts | 174° |
| 2026-05-07 21:12 | -37.01349 | 144.69774 | 11095 ft | 290 kts | 175° |
| 2026-05-07 21:12 | -37.03296 | 144.70207 | 11025 ft | 277 kts | 175° |
| 2026-05-07 21:12 | -37.05135 | 144.70616 | 10939 ft | 266 kts | 175° |
| 2026-05-07 21:12 | -37.06917 | 144.71012 | 10819 ft | 256 kts | 175° |
| 2026-05-07 21:13 | -37.08662 | 144.71398 | 10680 ft | 248 kts | 175° |
| 2026-05-07 21:13 | -37.10324 | 144.71765 | 10445 ft | 244 kts | 175° |
| 2026-05-07 21:13 | -37.11991 | 144.72133 | 10140 ft | 243 kts | 175° |
| 2026-05-07 21:13 | -37.13657 | 144.72501 | 9806 ft | 243 kts | 175° |
| 2026-05-07 21:14 | -37.15317 | 144.72869 | 9505 ft | 241 kts | 175° |
| 2026-05-07 21:14 | -37.16959 | 144.73238 | 9192 ft | 239 kts | 174° |
| 2026-05-07 21:14 | -37.18593 | 144.73655 | 8841 ft | 239 kts | 173° |
| 2026-05-07 21:14 | -37.20220 | 144.74088 | 8548 ft | 237 kts | 173° |
| 2026-05-07 21:15 | -37.21813 | 144.74514 | 8381 ft | 230 kts | 174° |
| 2026-05-07 21:15 | -37.23364 | 144.74926 | 8177 ft | 225 kts | 174° |
| 2026-05-07 21:15 | -37.24886 | 144.75329 | 7926 ft | 223 kts | 174° |
| 2026-05-07 21:15 | -37.26403 | 144.75728 | 7628 ft | 222 kts | 173° |
| 2026-05-07 21:16 | -37.27918 | 144.76127 | 7328 ft | 222 kts | 173° |
| 2026-05-07 21:16 | -37.29424 | 144.76525 | 7036 ft | 221 kts | 173° |
| 2026-05-07 21:16 | -37.30922 | 144.76934 | 6753 ft | 220 kts | 173° |
| 2026-05-07 21:16 | -37.32403 | 144.77304 | 6440 ft | 219 kts | 175° |
| 2026-05-07 21:17 | -37.33923 | 144.77628 | 6115 ft | 219 kts | 176° |
| 2026-05-07 21:17 | -37.35403 | 144.77918 | 5804 ft | 217 kts | 176° |
| 2026-05-07 21:17 | -37.36898 | 144.78200 | 5511 ft | 216 kts | 178° |
| 2026-05-07 21:17 | -37.38390 | 144.78477 | 5154 ft | 218 kts | 178° |
| 2026-05-07 21:18 | -37.39889 | 144.78755 | 4903 ft | 215 kts | 177° |
| 2026-05-07 21:18 | -37.41342 | 144.79027 | 4771 ft | 207 kts | 178° |
| 2026-05-07 21:18 | -37.42763 | 144.79289 | 4694 ft | 209 kts | 178° |
| 2026-05-07 21:18 | -37.44222 | 144.79559 | 4665 ft | 214 kts | 178° |
| 2026-05-07 21:19 | -37.45709 | 144.79835 | 4359 ft | 215 kts | 177° |
| 2026-05-07 21:19 | -37.47183 | 144.80112 | 4074 ft | 212 kts | 178° |
| 2026-05-07 21:19 | -37.48581 | 144.80376 | 3825 ft | 193 kts | 178° |
| 2026-05-07 21:19 | -37.49832 | 144.80612 | 3540 ft | 171 kts | 179° |
| 2026-05-07 21:20 | -37.50964 | 144.80821 | 3333 ft | 161 kts | 179° |
| 2026-05-07 21:20 | -37.52065 | 144.81023 | 3100 ft | 159 kts | 180° |
| 2026-05-07 21:20 | -37.53168 | 144.81225 | 2900 ft | 162 kts | 180° |
| 2026-05-07 21:20 | -37.54246 | 144.81429 | 2688 ft | 150 kts | 181° |
| 2026-05-07 21:21 | -37.55238 | 144.81616 | 2481 ft | 140 kts | 181° |
| 2026-05-07 21:21 | -37.56161 | 144.81788 | 2288 ft | 130 kts | 184° |
| 2026-05-07 21:21 | -37.57035 | 144.81948 | 2122 ft | 126 kts | 182° |
| 2026-05-07 21:21 | -37.57879 | 144.82102 | 1971 ft | 125 kts | 184° |
| 2026-05-07 21:22 | -37.58749 | 144.82263 | 1799 ft | 127 kts | 182° |
| 2026-05-07 21:22 | -37.59633 | 144.82432 | 1619 ft | 130 kts | 181° |
| 2026-05-07 21:22 | -37.60547 | 144.82599 | 1427 ft | 136 kts | 179° |
| 2026-05-07 21:22 | -37.61478 | 144.82774 | 1241 ft | 135 kts | 178° |
| 2026-05-07 21:23 | -37.62398 | 144.82936 | 1040 ft | 133 kts | 178° |
| 2026-05-07 21:23 | -37.63327 | 144.83115 | 879 ft | 136 kts | 177° |
| 2026-05-07 21:23 | -37.64258 | 144.83308 | 684 ft | 138 kts | 178° |
| 2026-05-07 21:23 | -37.65208 | 144.83484 | 518 ft | 138 kts | 179° |
| 2026-05-07 21:24 | -37.66130 | 144.83654 | 417 ft | 128 kts | 178° |
| 2026-05-07 21:24 | -37.66874 | 144.83781 | 393 ft | 81 kts | 170° |
| 2026-05-07 21:24 | -37.67327 | 144.83866 | 379 ft | 64 kts | 172° |
| 2026-05-07 21:24 | -37.67726 | 144.83939 | 370 ft | 39 kts | 169° |
| 2026-05-07 21:25 | -37.67850 | 144.84026 | 365 ft | 12 kts | 120° |
| 2026-05-07 21:25 | -37.67865 | 144.84120 | 369 ft | 10 kts | 91° |
| 2026-05-07 21:25 | -37.67862 | 144.84205 | 368 ft | 10 kts | 85° |
| 2026-05-07 21:25 | -37.67845 | 144.84290 | 371 ft | 10 kts | 64° |
| 2026-05-07 21:26 | -37.67796 | 144.84350 | 374 ft | 10 kts | 28° |
| 2026-05-07 21:26 | -37.67731 | 144.84364 | 372 ft | 9 kts | 358° |
| 2026-05-07 21:26 | -37.67670 | 144.84356 | 376 ft | 9 kts | 352° |
| 2026-05-07 21:26 | -37.67611 | 144.84344 | 377 ft | 9 kts | 351° |
| 2026-05-07 21:27 | -37.67552 | 144.84332 | 379 ft | 9 kts | 351° |
| 2026-05-07 21:27 | -37.67494 | 144.84321 | 380 ft | 9 kts | 352° |
| 2026-05-07 21:27 | -37.67435 | 144.84311 | 382 ft | 9 kts | 352° |
| 2026-05-07 21:27 | -37.67376 | 144.84302 | 383 ft | 9 kts | 354° |
| 2026-05-07 21:28 | -37.67317 | 144.84294 | 384 ft | 9 kts | 353° |
| 2026-05-07 21:28 | -37.67258 | 144.84283 | 386 ft | 9 kts | 350° |
| 2026-05-07 21:28 | -37.67199 | 144.84270 | 387 ft | 9 kts | 350° |
| 2026-05-07 21:28 | -37.67141 | 144.84257 | 388 ft | 9 kts | 350° |
| 2026-05-07 21:29 | -37.67082 | 144.84246 | 389 ft | 9 kts | 352° |
| 2026-05-07 21:29 | -37.67023 | 144.84236 | 390 ft | 9 kts | 353° |
| 2026-05-07 21:29 | -37.66964 | 144.84226 | 392 ft | 9 kts | 352° |
| 2026-05-07 21:29 | -37.66917 | 144.84217 | 393 ft | 6 kts | 350° |
| 2026-05-07 21:30 | -37.66879 | 144.84209 | 392 ft | 4 kts | 355° |
| 2026-05-07 21:30 | -37.66853 | 144.84220 | 395 ft | 4 kts | 35° |
| 2026-05-07 21:30 | -37.66841 | 144.84252 | 393 ft | 4 kts | 73° |
| 2026-05-07 21:30 | -37.66834 | 144.84290 | 393 ft | 5 kts | 78° |
| 2026-05-07 21:31 | -37.66831 | 144.84310 | 396 ft | 2 kts | 80° |
| 2026-05-07 21:31 | -37.66829 | 144.84324 | 397 ft | 1 kts | 80° |
| 2026-05-07 21:31 | -37.66828 | 144.84332 | 397 ft | 0 kts | 81° |